M I D A S
Marine Information and Data Acquisition System
Tripno 2022 of the Zeeleeuw from 2010-09-07 06:20:03 to 2010-09-07 10:14:17
Back to CruiseResearch ActivitiesStationsMapUnderway DataData graphs

EquipmentUnitsComment
TimeDGPSUTC
LatitudeDGPSDM.mWGS84
LongitudeDGPSDM.mWGS84
TemperatureSBE03/SBE38deg celciusITS90
ConductivitySBE21S/mITS90
SalinitySBE21 Practical Salinity Units
ChlorophylAChelsea fluorimeterg/lCalibrated in Aceton
Missing or incorrect values are displayed as -999
Sea surface data collected by the RV Zeeleeuw from 2010-09-07 06:20:47 to 2010-09-07 10:14:16
                                                                                    Next 1000 lines
Time Latitude Longitude Temperature Conductivity Salinity ChlorophylA
2010-09-07 06:20:57 51°13.663 2°55.956 20.4723 0.326739 2.054307 -0.896096
2010-09-07 06:21:02 51°13.663 2°55.954 20.4676 0.326739 2.054307 -0.896096
2010-09-07 06:21:07 51°13.664 2°55.951 20.4554 0.326739 2.054344 -0.896096
2010-09-07 06:21:12 51°13.665 2°55.947 20.4911 0.326739 2.054344 -0.896096
2010-09-07 06:21:17 51°13.666 2°55.943 20.4841 0.326739 2.054381 -0.861272
2010-09-07 06:21:22 51°13.667 2°55.937 20.5023 0.326739 2.054381 -0.861272
2010-09-07 06:21:27 51°13.668 2°55.932 20.4977 0.326739 2.054381 -0.861272
2010-09-07 06:21:32 51°13.67 2°55.925 20.4997 0.326739 2.054381 -0.826448
2010-09-07 06:21:37 51°13.671 2°55.919 20.4967 0.326739 2.054381 -0.861272
2010-09-07 06:21:42 51°13.673 2°55.912 20.4853 0.326739 2.054418 -0.861272
2010-09-07 06:21:47 51°13.674 2°55.904 20.4812 0.326739 2.054344 -0.861272
2010-09-07 06:21:52 51°13.676 2°55.896 20.4803 0.326739 2.054381 -0.861272
2010-09-07 06:21:57 51°13.677 2°55.887 20.5069 0.326739 2.054381 -0.861272
2010-09-07 06:22:02 51°13.678 2°55.878 20.4964 0.326739 2.054418 -0.861272
2010-09-07 06:22:07 51°13.679 2°55.869 20.4999 0.326739 2.054418 -0.896096
2010-09-07 06:22:12 51°13.681 2°55.86 20.5126 0.326739 2.054418 -0.861272
2010-09-07 06:22:17 51°13.683 2°55.85 20.5102 0.326739 2.054455 -0.861272
2010-09-07 06:22:22 51°13.684 2°55.841 20.5159 0.326739 2.054418 -0.861272
2010-09-07 06:22:27 51°13.685 2°55.832 20.5113 0.326739 2.054418 -0.861272
2010-09-07 06:22:32 51°13.686 2°55.823 20.5143 0.326739 2.054455 -0.896096
2010-09-07 06:22:37 51°13.687 2°55.814 20.5127 0.326739 2.054455 -0.861272
2010-09-07 06:22:42 51°13.688 2°55.805 20.5124 0.326739 2.054455 -0.861272
2010-09-07 06:22:47 51°13.689 2°55.797 20.511 0.326739 2.054492 -0.861272
2010-09-07 06:22:52 51°13.689 2°55.789 20.5106 0.326739 2.054455 -0.861272
2010-09-07 06:22:57 51°13.69 2°55.781 20.5089 0.326739 2.054455 -0.861272
2010-09-07 06:23:02 51°13.69 2°55.773 20.5102 0.326739 2.054455 -0.861272
2010-09-07 06:23:07 51°13.69 2°55.766 20.5063 0.326739 2.054455 -0.861272
2010-09-07 06:23:12 51°13.69 2°55.76 20.4953 0.326739 2.054455 -0.896096
2010-09-07 06:23:17 51°13.69 2°55.753 20.4869 0.326739 2.054492 -0.861272
2010-09-07 06:23:22 51°13.689 2°55.747 20.4976 0.326739 2.054455 -0.861272
2010-09-07 06:23:27 51°13.689 2°55.743 20.5047 0.326739 2.054455 -0.861272
2010-09-07 06:23:32 51°13.688 2°55.739 20.5213 0.326739 2.054455 -0.861272
2010-09-07 06:23:37 51°13.687 2°55.736 20.5186 0.326739 2.054455 -0.861272
2010-09-07 06:23:41 51°13.687 2°55.734 20.5161 0.326739 2.054492 -0.896096
2010-09-07 06:23:47 51°13.686 2°55.733 20.5176 0.326739 2.054492 -0.896096
2010-09-07 06:23:52 51°13.686 2°55.733 20.519 0.326739 2.054492 -0.896096
2010-09-07 06:23:56 51°13.686 2°55.734 20.5184 0.326739 2.054492 -0.896096
2010-09-07 06:24:01 51°13.686 2°55.735 20.5192 0.326739 2.054529 -0.861272
2010-09-07 06:24:06 51°13.686 2°55.736 20.5243 0.326739 2.054492 -0.861272
2010-09-07 06:24:11 51°13.687 2°55.737 20.5305 0.326739 2.054529 -0.896096
2010-09-07 06:24:16 51°13.688 2°55.739 20.5354 0.326739 2.054566 -0.861272
2010-09-07 06:24:21 51°13.689 2°55.741 20.0431 0.326739 2.054529 -0.896096
2010-09-07 06:24:26 51°13.69 2°55.744 19.6608 0.326739 2.054529 -0.896096
2010-09-07 06:24:31 51°13.692 2°55.746 18.8354 0.326739 2.055492 -0.861272
2010-09-07 06:24:36 51°13.694 2°55.748 18.5027 0.326739 2.055048 -0.791624
2010-09-07 06:24:40 51°13.695 2°55.749 18.2677 0.327052 2.064728 -0.547855
2010-09-07 06:24:46 51°13.698 2°55.751 18.1375 0.81292 5.292475 -0.547855
2010-09-07 06:24:51 51°13.701 2°55.752 18.0219 2.227926 15.204479 -0.408559
2010-09-07 06:24:56 51°13.704 2°55.753 17.8879 2.227926 15.204479 -0.408559
2010-09-07 06:25:00 51°13.707 2°55.753 17.8669 2.413372 16.570532 -0.513031
2010-09-07 06:25:05 51°13.71 2°55.753 17.825 2.905073 20.209433 -0.338911
2010-09-07 06:25:10 51°13.715 2°55.752 17.7397 3.536706 25.233188 -0.025495
2010-09-07 06:25:16 51°13.72 2°55.747 17.7146 3.917201 28.510941 0.148626
2010-09-07 06:25:20 51°13.724 2°55.744 17.7073 4.003073 29.434221 0.18345
2010-09-07 06:25:25 51°13.729 2°55.738 17.7081 4.003073 29.434221 0.18345
2010-09-07 06:25:30 51°13.734 2°55.732 17.6473 4.023015 29.790362 0.253098
2010-09-07 06:25:35 51°13.739 2°55.725 17.6525 4.021119 29.91352 0.287922
2010-09-07 06:25:40 51°13.744 2°55.717 17.6432 4.021226 30.011258 0.287922
2010-09-07 06:25:45 51°13.751 2°55.709 17.6679 4.029456 30.175845 0.287922
2010-09-07 06:25:50 51°13.758 2°55.701 17.628 4.024921 30.202075 0.35757
2010-09-07 06:25:55 51°13.764 2°55.692 17.6277 4.024921 30.202075 0.35757
2010-09-07 06:26:00 51°13.772 2°55.684 17.5918 4.019963 30.194882 0.322746
2010-09-07 06:26:04 51°13.778 2°55.677 17.5731 4.013318 30.177307 0.392394
2010-09-07 06:26:09 51°13.787 2°55.668 17.5622 4.006567 30.15346 0.35757
2010-09-07 06:26:14 51°13.795 2°55.659 17.5841 4.003824 30.149248 0.392394
2010-09-07 06:26:20 51°13.806 2°55.65 17.5796 4.005618 30.17127 0.35757
2010-09-07 06:26:24 51°13.814 2°55.644 17.5797 4.005618 30.17127 0.35757
2010-09-07 06:26:29 51°13.824 2°55.637 17.5872 3.996545 30.107516 0.392394
2010-09-07 06:26:34 51°13.834 2°55.629 17.5546 3.995596 30.112429 0.427218
2010-09-07 06:26:39 51°13.844 2°55.622 17.6184 3.994225 30.10253 0.392394
2010-09-07 06:26:44 51°13.854 2°55.614 17.5699 3.98779 30.073198 0.392394
2010-09-07 06:26:49 51°13.865 2°55.606 17.5312 3.985469 30.06981 0.35757
2010-09-07 06:26:54 51°13.876 2°55.598 17.5225 3.985469 30.06981 0.35757
2010-09-07 06:26:59 51°13.887 2°55.59 17.5018 3.988107 30.087667 0.322746
2010-09-07 06:27:04 51°13.898 2°55.582 17.5341 3.982621 30.05447 0.35757
2010-09-07 06:27:09 51°13.909 2°55.574 17.5059 3.976608 30.008243 0.287922
2010-09-07 06:27:14 51°13.92 2°55.566 17.4933 3.968907 29.948908 0.253098
2010-09-07 06:27:19 51°13.932 2°55.557 17.4866 3.957936 29.854638 0.218274
2010-09-07 06:27:24 51°13.944 2°55.549 17.4845 3.957936 29.854638 0.218274
2010-09-07 06:27:28 51°13.953 2°55.543 17.4485 3.953084 29.813901 0.218274
2010-09-07 06:27:33 51°13.965 2°55.535 17.4588 3.931776 29.65471 0.148626
2010-09-07 06:27:38 51°13.977 2°55.526 17.4463 3.922494 29.594276 0.113802
2010-09-07 06:27:44 51°13.991 2°55.515 17.4722 3.923232 29.590418 0.113802
2010-09-07 06:27:48 51°14.001 2°55.508 17.4731 3.922916 29.606822 0.078977
2010-09-07 06:27:54 51°14.015 2°55.497 17.4774 3.922916 29.606822 0.078977
2010-09-07 06:27:58 51°14.025 2°55.49 17.461 3.91627 29.557372 0.044153
2010-09-07 06:28:04 51°14.04 2°55.479 17.4706 3.920806 29.599701 0.009329
2010-09-07 06:28:08 51°14.049 2°55.472 17.4594 3.918591 29.586392 -0.025495
2010-09-07 06:28:14 51°14.064 2°55.461 17.4752 3.925659 29.655861 -0.060319
2010-09-07 06:28:19 51°14.076 2°55.451 17.4752 3.925764 29.666845 -0.060319
2010-09-07 06:28:24 51°14.088 2°55.441 17.4814 3.925764 29.666845 -0.060319
2010-09-07 06:28:28 51°14.098 2°55.433 17.4488 3.93568 29.753973 0.009329
2010-09-07 06:28:33 51°14.111 2°55.424 17.4651 3.94011 29.785377 -0.025495
2010-09-07 06:28:38 51°14.124 2°55.416 17.4431 3.944119 29.823379 -0.025495
2010-09-07 06:28:44 51°14.139 2°55.406 17.4435 3.948022 29.858903 -0.025495
2010-09-07 06:28:48 51°14.149 2°55.399 17.4597 3.952875 29.896537 0.009329
2010-09-07 06:28:53 51°14.161 2°55.39 17.43 3.952875 29.896537 0.009329
2010-09-07 06:28:58 51°14.173 2°55.379 17.4425 3.952769 29.891899 0.009329
2010-09-07 06:29:04 51°14.188 2°55.367 17.4308 3.954457 29.904498 0.009329
2010-09-07 06:29:08 51°14.198 2°55.359 17.4424 3.95952 29.95088 0.009329
2010-09-07 06:29:13 51°14.21 2°55.35 17.4155 3.958993 29.953419 0.009329
2010-09-07 06:29:18 51°14.223 2°55.34 17.4195 3.958677 29.952365 0.044153
2010-09-07 06:29:24 51°14.237 2°55.327 17.4081 3.958677 29.952365 0.044153
2010-09-07 06:29:28 51°14.247 2°55.318 17.4254 3.957516 29.945277 0.044153
2010-09-07 06:29:32 51°14.256 2°55.309 17.4024 3.954774 29.932376 0.078977
2010-09-07 06:29:38 51°14.271 2°55.296 17.3862 3.957622 29.952074 0.078977
2010-09-07 06:29:44 51°14.285 2°55.282 17.3814 3.956778 29.947113 0.113802
2010-09-07 06:29:48 51°14.295 2°55.271 17.3718 3.958149 29.963504 0.113802
2010-09-07 06:29:54 51°14.31 2°55.255 17.3692 3.958149 29.963504 0.113802
2010-09-07 06:29:58 51°14.32 2°55.246 17.3805 3.96258 29.999765 0.148626
2010-09-07 06:30:04 51°14.334 2°55.232 17.3684 3.964479 30.023309 0.113802
2010-09-07 06:30:08 51°14.344 2°55.223 17.3556 3.960681 29.991296 0.113802
2010-09-07 06:30:14 51°14.358 2°55.209 17.3545 3.965745 30.035599 0.148626
2010-09-07 06:30:19 51°14.371 2°55.197 17.3481 3.967433 30.067639 0.148626
2010-09-07 06:30:24 51°14.383 2°55.185 17.3474 3.967433 30.067639 0.148626
2010-09-07 06:30:28 51°14.393 2°55.175 17.3519 3.965851 30.061309 0.078977
2010-09-07 06:30:33 51°14.406 2°55.163 17.3635 3.962792 30.043592 0.113802
2010-09-07 06:30:38 51°14.419 2°55.151 17.3524 3.968699 30.09021 0.113802
2010-09-07 06:30:44 51°14.435 2°55.136 17.3543 3.975556 30.155141 0.078977
2010-09-07 06:30:48 51°14.446 2°55.125 17.3427 3.978088 30.183576 0.113802
2010-09-07 06:30:53 51°14.459 2°55.111 17.3385 3.978088 30.183576 0.113802
2010-09-07 06:30:58 51°14.472 2°55.097 17.3215 3.978932 30.202111 0.078977
2010-09-07 06:31:04 51°14.489 2°55.08 17.3327 3.984101 30.241994 0.113802
2010-09-07 06:31:08 51°14.5 2°55.067 17.3156 3.996655 30.343759 0.078977
2010-09-07 06:31:13 51°14.514 2°55.052 17.3165 3.996338 30.343812 0.148626
2010-09-07 06:31:18 51°14.529 2°55.036 17.3065 3.998976 30.365568 0.113802
2010-09-07 06:31:24 51°14.545 2°55.016 17.323 3.998976 30.365568 0.113802
2010-09-07 06:31:28 51°14.556 2°55.001 17.3159 4.011108 30.465446 0.113802
2010-09-07 06:31:33 51°14.57 2°54.982 17.3101 4.012057 30.483896 0.113802
2010-09-07 06:31:38 51°14.584 2°54.964 17.2959 4.013745 30.506415 0.078977
2010-09-07 06:31:43 51°14.598 2°54.946 17.3021 4.015644 30.530185 0.113802
2010-09-07 06:31:48 51°14.613 2°54.929 17.2893 4.015539 30.530391 0.113802
2010-09-07 06:31:53 51°14.627 2°54.911 17.2807 4.015539 30.530391 0.113802
2010-09-07 06:31:58 51°14.642 2°54.893 17.2933 4.012058 30.503656 0.078977
2010-09-07 06:32:03 51°14.656 2°54.876 17.2922 4.006044 30.457125 0.078977
2010-09-07 06:32:08 51°14.671 2°54.858 17.294 4.009948 30.489631 0.044153
2010-09-07 06:32:13 51°14.686 2°54.841 17.2836 4.005833 30.456435 0.044153
2010-09-07 06:32:18 51°14.701 2°54.824 17.2913 4.007416 30.472031 0.113802
2010-09-07 06:32:23 51°14.715 2°54.806 17.2709 4.007416 30.472031 0.113802
2010-09-07 06:32:28 51°14.729 2°54.788 17.279 4.010686 30.509623 0.113802
2010-09-07 06:32:33 51°14.743 2°54.769 17.2918 4.014379 30.542562 0.148626
2010-09-07 06:32:38 51°14.758 2°54.751 17.2928 4.017333 30.573107 0.18345
2010-09-07 06:32:44 51°14.774 2°54.729 17.2899 4.0263 30.64472 0.218274
2010-09-07 06:32:48 51°14.786 2°54.714 17.2951 4.032841 30.696869 0.253098
2010-09-07 06:32:54 51°14.802 2°54.692 17.3088 4.032841 30.696869 0.253098
2010-09-07 06:33:00 51°14.82 2°54.67 17.3049 4.038855 30.754523 0.253098
2010-09-07 06:33:04 51°14.831 2°54.656 17.2989 4.042547 30.788073 0.322746
2010-09-07 06:33:09 51°14.845 2°54.637 17.2965 4.044974 30.809221 0.322746
2010-09-07 06:33:16 51°14.865 2°54.611 17.307 4.050038 30.855542 0.322746
2010-09-07 06:33:20 51°14.877 2°54.596 17.3127 4.054785 30.885828 0.322746
2010-09-07 06:33:27 51°14.897 2°54.57 17.3059 4.054785 30.885828 0.322746
2010-09-07 06:33:32 51°14.91 2°54.552 17.3059 4.058372 30.909593 0.322746
2010-09-07 06:33:36 51°14.922 2°54.537 17.3004 4.058899 30.912956 0.322746
2010-09-07 06:33:41 51°14.936 2°54.519 17.2963 4.060271 30.929057 0.35757
2010-09-07 06:33:47 51°14.952 2°54.498 17.3003 4.063753 30.959173 0.322746
2010-09-07 06:33:52 51°14.966 2°54.479 17.2965 4.061537 30.948171 0.322746
2010-09-07 06:33:56 51°14.977 2°54.464 17.2858 4.061537 30.948171 0.322746
2010-09-07 06:34:01 51°14.99 2°54.446 17.2822 4.064808 30.966457 0.35757
2010-09-07 06:34:06 51°15.004 2°54.427 17.3059 4.064808 30.964225 0.322746
2010-09-07 06:34:12 51°15.02 2°54.405 17.2951 4.066707 30.974767 0.322746
2010-09-07 06:34:16 51°15.031 2°54.39 17.2936 4.069133 30.99816 0.322746
2010-09-07 06:34:21 51°15.045 2°54.374 17.2941 4.067867 30.99523 0.287922
2010-09-07 06:34:26 51°15.059 2°54.356 17.2898 4.067867 30.99523 0.287922
2010-09-07 06:34:31 51°15.074 2°54.339 17.2935 4.063647 30.961068 0.322746
2010-09-07 06:34:36 51°15.088 2°54.321 17.3099 4.066918 30.992752 0.322746
2010-09-07 06:34:41 51°15.102 2°54.305 17.3016 4.064808 30.974831 0.287922
2010-09-07 06:34:46 51°15.117 2°54.287 17.3 4.066496 30.990285 0.287922
2010-09-07 06:34:51 51°15.131 2°54.27 17.2945 4.067023 30.985828 0.287922
2010-09-07 06:34:56 51°15.146 2°54.253 17.3133 4.067023 30.985828 0.287922
2010-09-07 06:35:00 51°15.158 2°54.24 17.2991 4.070399 31.008351 0.287922
2010-09-07 06:35:06 51°15.175 2°54.219 17.3089 4.068395 31.00418 0.287922
2010-09-07 06:35:10 51°15.186 2°54.204 17.2989 4.073037 31.035781 0.287922
2010-09-07 06:35:16 51°15.204 2°54.183 17.3083 4.072509 31.040252 0.287922
2010-09-07 06:35:20 51°15.216 2°54.169 17.2924 4.067129 30.986165 0.218274
2010-09-07 06:35:25 51°15.23 2°54.152 17.2924 4.067129 30.986165 0.218274
2010-09-07 06:35:30 51°15.245 2°54.134 17.2925 4.071771 31.028943 0.218274
2010-09-07 06:35:35 51°15.259 2°54.116 17.2982 4.075147 31.051464 0.218274
2010-09-07 06:35:40 51°15.273 2°54.098 17.2904 4.070505 31.013158 0.148626
2010-09-07 06:35:45 51°15.288 2°54.08 17.2981 4.072087 31.029953 0.148626
2010-09-07 06:35:50 51°15.302 2°54.062 17.2971 4.075147 31.053143 0.113802
2010-09-07 06:35:55 51°15.317 2°54.045 17.2907 4.075147 31.053143 0.113802
2010-09-07 06:36:00 51°15.331 2°54.027 17.2925 4.070821 31.023115 0.113802
2010-09-07 06:36:05 51°15.346 2°54.009 17.2794 4.078206 31.073533 0.113802
2010-09-07 06:36:10 51°15.36 2°53.991 17.2827 4.072931 31.03936 0.113802
2010-09-07 06:36:15 51°15.375 2°53.973 17.2873 4.076941 31.069498 0.044153
2010-09-07 06:36:20 51°15.389 2°53.956 17.2898 4.075675 31.067143 0.044153
2010-09-07 06:36:24 51°15.401 2°53.941 17.2977 4.075675 31.067143 0.044153
2010-09-07 06:36:29 51°15.415 2°53.923 17.297 4.077574 31.080477 0.044153
2010-09-07 06:36:35 51°15.432 2°53.901 17.2903 4.076413 31.068937 0.078977
2010-09-07 06:36:39 51°15.444 2°53.887 17.2892 4.073143 31.049548 0.078977
2010-09-07 06:36:44 51°15.458 2°53.868 17.2872 4.083165 31.124626 0.078977
2010-09-07 06:36:49 51°15.473 2°53.85 17.2882 4.076202 31.078349 0.044153
2010-09-07 06:36:54 51°15.487 2°53.832 17.2823 4.076202 31.078349 0.044153
2010-09-07 06:36:59 51°15.501 2°53.814 17.2862 4.080211 31.109619 0.078977
2010-09-07 06:37:04 51°15.516 2°53.795 17.2871 4.078734 31.094823 0.044153
2010-09-07 06:37:09 51°15.53 2°53.777 17.2908 4.083482 31.136296 0.009329
2010-09-07 06:37:14 51°15.544 2°53.758 17.2812 4.082954 31.125638 0.044153
2010-09-07 06:37:19 51°15.559 2°53.741 17.2919 4.079578 31.099192 0.009329
2010-09-07 06:37:24 51°15.573 2°53.722 17.289 4.079578 31.099192 0.009329
2010-09-07 06:37:28 51°15.585 2°53.708 17.2867 4.082427 31.130135 -0.025495
2010-09-07 06:37:33 51°15.599 2°53.69 17.2859 4.081899 31.126212 -0.025495
2010-09-07 06:37:39 51°15.617 2°53.669 17.2844 4.083165 31.128554 0.009329
2010-09-07 06:37:44 51°15.631 2°53.652 17.2941 4.083799 31.141232 -0.025495
2010-09-07 06:37:48 51°15.643 2°53.639 17.2886 4.085909 31.163104 -0.025495
2010-09-07 06:37:53 51°15.658 2°53.622 17.2789 4.085909 31.163104 -0.025495
2010-09-07 06:37:58 51°15.673 2°53.606 17.2786 4.084854 31.156944 0.009329
2010-09-07 06:38:04 51°15.691 2°53.586 17.2817 4.081161 31.119373 -0.025495
2010-09-07 06:38:08 51°15.704 2°53.573 17.2807 4.087175 31.171621 -0.025495
2010-09-07 06:38:13 51°15.719 2°53.557 17.2826 4.086436 31.164779 -0.060319
2010-09-07 06:38:18 51°15.734 2°53.541 17.2829 4.089707 31.190901 -0.060319
2010-09-07 06:38:23 51°15.749 2°53.526 17.2837 4.089707 31.190901 -0.060319
2010-09-07 06:38:28 51°15.764 2°53.51 17.2839 4.089074 31.181582 -0.025495
2010-09-07 06:38:33 51°15.78 2°53.495 17.2763 4.0915 31.201088 -0.025495
2010-09-07 06:38:38 51°15.795 2°53.479 17.2784 4.087597 31.174647 -0.060319
2010-09-07 06:38:43 51°15.81 2°53.463 17.2817 4.087069 31.170724 -0.060319
2010-09-07 06:38:48 51°15.825 2°53.447 17.2909 4.090973 31.205042 -0.060319
2010-09-07 06:38:53 51°15.84 2°53.431 17.2861 4.090973 31.205042 -0.060319
2010-09-07 06:38:58 51°15.855 2°53.415 17.2869 4.0915 31.203901 -0.060319
2010-09-07 06:39:03 51°15.87 2°53.399 17.2806 4.088546 31.183845 -0.060319
2010-09-07 06:39:08 51°15.885 2°53.382 17.2878 4.089601 31.193941 -0.095143
2010-09-07 06:39:13 51°15.9 2°53.366 17.2963 4.092239 31.218625 -0.060319
2010-09-07 06:39:18 51°15.915 2°53.35 17.2957 4.092766 31.215792 -0.060319
2010-09-07 06:39:24 51°15.933 2°53.331 17.293 4.092766 31.215792 -0.060319
2010-09-07 06:39:28 51°15.944 2°53.317 17.2946 4.092028 31.221335 -0.095143
2010-09-07 06:39:33 51°15.959 2°53.301 17.2897 4.095932 31.246089 -0.095143
2010-09-07 06:39:38 51°15.974 2°53.285 17.2877 4.101207 31.285319 -0.060319
2010-09-07 06:39:44 51°15.992 2°53.265 17.2895 4.098253 31.26414 -0.025495
2010-09-07 06:39:48 51°16.004 2°53.252 17.2896 4.098253 31.265268 -0.060319
2010-09-07 06:39:53 51°16.019 2°53.236 17.2936 4.098253 31.265268 -0.060319
2010-09-07 06:39:58 51°16.033 2°53.219 17.2974 4.09973 31.267118 -0.060319
2010-09-07 06:40:04 51°16.05 2°53.199 17.293 4.10279 31.300474 -0.060319
2010-09-07 06:40:08 51°16.062 2°53.185 17.2997 4.102157 31.293396 -0.060319
2010-09-07 06:40:13 51°16.077 2°53.168 17.2919 4.102262 31.2926 -0.060319
2010-09-07 06:40:18 51°16.092 2°53.152 17.2908 4.10395 31.315429 -0.060319
2010-09-07 06:40:23 51°16.107 2°53.136 17.2908 4.10395 31.315429 -0.060319
2010-09-07 06:40:28 51°16.122 2°53.121 17.2958 4.107959 31.344456 -0.060319
2010-09-07 06:40:33 51°16.137 2°53.105 17.2955 4.103317 31.299317 -0.025495
2010-09-07 06:40:38 51°16.151 2°53.09 17.2926 4.105744 31.3273 -0.060319
2010-09-07 06:40:43 51°16.166 2°53.075 17.3049 4.110808 31.362473 -0.095143
2010-09-07 06:40:48 51°16.181 2°53.059 17.302 4.109859 31.361746 -0.060319
2010-09-07 06:40:52 51°16.193 2°53.047 17.2978 4.109859 31.361746 -0.060319
2010-09-07 06:40:58 51°16.211 2°53.028 17.3069 4.108065 31.343658 -0.060319
2010-09-07 06:41:04 51°16.229 2°53.01 17.3054 4.113551 31.389208 -0.060319
2010-09-07 06:41:08 51°16.241 2°52.997 17.2997 4.110281 31.356854 -0.060319
2010-09-07 06:41:14 51°16.259 2°52.978 17.3106 4.11218 31.374708 -0.060319
2010-09-07 06:41:18 51°16.271 2°52.966 17.3059 4.11334 31.378925 -0.095143
2010-09-07 06:41:24 51°16.289 2°52.947 17.3109 4.11334 31.378925 -0.095143
2010-09-07 06:41:28 51°16.301 2°52.935 17.3093 4.113024 31.378495 -0.095143
2010-09-07 06:41:33 51°16.316 2°52.92 17.315 4.11218 31.374142 -0.129967
2010-09-07 06:41:38 51°16.331 2°52.904 17.3129 4.110808 31.356254 -0.129967
2010-09-07 06:41:44 51°16.349 2°52.888 17.3066 4.110703 31.366665 -0.129967
2010-09-07 06:41:48 51°16.362 2°52.876 17.3136 4.113235 31.379724 -0.164791
2010-09-07 06:41:53 51°16.377 2°52.863 17.307 4.113235 31.379724 -0.164791
2010-09-07 06:41:58 51°16.393 2°52.85 17.3112 4.115345 31.392584 -0.164791
2010-09-07 06:42:04 51°16.412 2°52.835 17.3121 4.111652 31.362869 -0.164791
2010-09-07 06:42:08 51°16.425 2°52.825 17.3094 4.115239 31.388857 -0.164791
2010-09-07 06:42:13 51°16.44 2°52.813 17.3113 4.117455 31.409403 -0.164791
2010-09-07 06:42:18 51°16.457 2°52.8 17.3064 4.11429 31.381912 -0.129967
2010-09-07 06:42:24 51°16.476 2°52.786 17.3094 4.11429 31.381912 -0.129967
2010-09-07 06:42:28 51°16.488 2°52.776 17.3071 4.115767 31.397306 -0.164791
2010-09-07 06:42:33 51°16.504 2°52.764 17.3062 4.115239 31.386029 -0.164791
2010-09-07 06:42:38 51°16.52 2°52.752 17.3042 4.114079 31.380117 -0.164791
2010-09-07 06:42:44 51°16.539 2°52.738 17.308 4.114606 31.394223 -0.129967
2010-09-07 06:42:48 51°16.552 2°52.728 17.3059 4.111968 31.358778 -0.164791
2010-09-07 06:42:53 51°16.568 2°52.716 17.3049 4.111968 31.358778 -0.164791
2010-09-07 06:42:58 51°16.584 2°52.703 17.3054 4.116611 31.412414 -0.164791
2010-09-07 06:43:03 51°16.599 2°52.692 17.3032 4.113868 31.383979 -0.164791
2010-09-07 06:43:08 51°16.615 2°52.679 17.3078 4.113868 31.382281 -0.164791
2010-09-07 06:43:13 51°16.631 2°52.667 17.3056 4.110808 31.35682 -0.164791
2010-09-07 06:43:18 51°16.647 2°52.655 17.3062 4.115239 31.390555 -0.129967
2010-09-07 06:43:23 51°16.662 2°52.642 17.3085 4.115239 31.390555 -0.129967
2010-09-07 06:43:28 51°16.678 2°52.63 17.3122 4.113657 31.378789 -0.095143
2010-09-07 06:43:33 51°16.694 2°52.618 17.3152 4.113551 31.388076 -0.129967
2010-09-07 06:43:38 51°16.709 2°52.606 17.3209 4.111019 31.357484 -0.164791
2010-09-07 06:43:44 51°16.728 2°52.592 17.3133 4.113129 31.375999 -0.129967
2010-09-07 06:43:48 51°16.741 2°52.582 17.3128 4.111547 31.368191 -0.129967
2010-09-07 06:43:53 51°16.756 2°52.57 17.3091 4.111547 31.368191 -0.129967
2010-09-07 06:43:58 51°16.771 2°52.558 17.3127 4.115661 31.396408 -0.129967
2010-09-07 06:44:04 51°16.789 2°52.543 17.3185 4.11524 31.40414 -0.095143
2010-09-07 06:44:08 51°16.802 2°52.533 17.3222 4.114079 31.386905 -0.129967
2010-09-07 06:44:13 51°16.817 2°52.52 17.3188 4.116083 31.397735 -0.095143
2010-09-07 06:44:18 51°16.833 2°52.508 17.3172 4.116611 31.399959 -0.095143
2010-09-07 06:44:24 51°16.851 2°52.494 17.3185 4.116611 31.399959 -0.095143
2010-09-07 06:44:28 51°16.863 2°52.483 17.3155 4.119776 31.429717 -0.095143
2010-09-07 06:44:33 51°16.878 2°52.471 17.3187 4.118405 31.419746 -0.095143
2010-09-07 06:44:38 51°16.893 2°52.459 17.3188 4.116083 31.397169 -0.095143
2010-09-07 06:44:44 51°16.912 2°52.444 17.3202 4.115345 31.390321 -0.095143
2010-09-07 06:44:48 51°16.924 2°52.434 17.3205 4.117877 31.403371 -0.095143
2010-09-07 06:44:53 51°16.939 2°52.421 17.3274 4.117877 31.403371 -0.095143
2010-09-07 06:44:58 51°16.954 2°52.408 17.328 4.11545 31.381038 -0.060319
2010-09-07 06:45:03 51°16.969 2°52.395 17.3299 4.115872 31.399335 -0.060319
2010-09-07 06:45:08 51°16.984 2°52.382 17.329 4.117982 31.405966 -0.060319
2010-09-07 06:45:13 51°16.999 2°52.369 17.3298 4.116927 31.408878 -0.095143
2010-09-07 06:45:18 51°17.014 2°52.356 17.3309 4.120304 31.424576 -0.129967
2010-09-07 06:45:23 51°17.029 2°52.343 17.3354 4.120304 31.424576 -0.129967
2010-09-07 06:45:28 51°17.044 2°52.329 17.3345 4.118088 31.411957 -0.025495
2010-09-07 06:45:33 51°17.059 2°52.316 17.3371 4.118088 31.406298 -0.025495
2010-09-07 06:45:38 51°17.074 2°52.303 17.338 4.116294 31.39274 -0.025495
2010-09-07 06:45:44 51°17.093 2°52.286 17.3399 4.120515 31.429203 -0.025495
2010-09-07 06:45:48 51°17.104 2°52.275 17.3444 4.120092 31.418253 -0.060319
2010-09-07 06:45:53 51°17.12 2°52.262 17.3474 4.120092 31.418253 -0.060319
2010-09-07 06:45:58 51°17.135 2°52.249 17.3438 4.122941 31.438516 -0.025495
2010-09-07 06:46:04 51°17.153 2°52.233 17.3448 4.119248 31.407114 -0.025495
2010-09-07 06:46:08 51°17.166 2°52.223 17.3483 4.12062 31.428967 -0.025495
2010-09-07 06:46:13 51°17.181 2°52.21 17.3488 4.124946 31.456131 -0.060319
2010-09-07 06:46:18 51°17.197 2°52.197 17.3512 4.123574 31.443333 -0.025495
2010-09-07 06:46:24 51°17.216 2°52.183 17.3508 4.123574 31.443333 -0.025495
2010-09-07 06:46:28 51°17.228 2°52.173 17.3571 4.121991 31.418557 -0.025495
2010-09-07 06:46:33 51°17.244 2°52.161 17.3509 4.118826 31.400133 -0.060319
2010-09-07 06:46:38 51°17.26 2°52.149 17.3515 4.123996 31.438995 -0.060319
2010-09-07 06:46:44 51°17.279 2°52.135 17.3532 4.123996 31.44579 -0.025495
2010-09-07 06:46:48 51°17.292 2°52.126 17.3564 4.127056 31.467277 0.009329
2010-09-07 06:46:53 51°17.307 2°52.115 17.3582 4.127056 31.467277 0.009329
2010-09-07 06:46:58 51°17.324 2°52.103 17.3571 4.126212 31.457267 -0.025495
2010-09-07 06:47:04 51°17.342 2°52.089 17.3595 4.132331 31.505902 -0.025495
2010-09-07 06:47:08 51°17.355 2°52.079 17.362 4.1279 31.466522 -0.025495
2010-09-07 06:47:13 51°17.37 2°52.068 17.3595 4.128005 31.471952 -0.025495
2010-09-07 06:47:18 51°17.386 2°52.056 17.3595 4.125895 31.446083 -0.025495
2010-09-07 06:47:24 51°17.405 2°52.043 17.3608 4.125895 31.446083 -0.025495
2010-09-07 06:47:28 51°17.417 2°52.033 17.3614 4.129377 31.475681 -0.025495
2010-09-07 06:47:33 51°17.433 2°52.022 17.3646 4.127161 31.464775 -0.025495
2010-09-07 06:47:38 51°17.448 2°52.01 17.3678 4.13307 31.507078 -0.025495
2010-09-07 06:47:43 51°17.463 2°51.998 17.3641 4.131909 31.495509 -0.060319
2010-09-07 06:47:48 51°17.479 2°51.986 17.3677 4.130749 31.487909 -0.025495
2010-09-07 06:47:52 51°17.491 2°51.977 17.3684 4.130749 31.487909 -0.025495
2010-09-07 06:47:58 51°17.509 2°51.962 17.369 4.133492 31.517474 0.009329
2010-09-07 06:48:04 51°17.528 2°51.948 17.372 4.133914 31.514822 -0.025495
2010-09-07 06:48:08 51°17.54 2°51.939 17.3695 4.131487 31.483987 -0.025495
2010-09-07 06:48:14 51°17.559 2°51.925 17.3685 4.134441 31.510232 -0.025495
2010-09-07 06:48:19 51°17.575 2°51.913 17.3679 4.133175 31.505139 -0.025495
2010-09-07 06:48:24 51°17.59 2°51.901 17.3674 4.133175 31.505139 -0.025495
2010-09-07 06:48:28 51°17.603 2°51.892 17.3675 4.138029 31.545839 -0.025495
2010-09-07 06:48:33 51°17.618 2°51.879 17.3663 4.139822 31.554844 -0.025495
2010-09-07 06:48:38 51°17.634 2°51.868 17.3693 4.138978 31.539155 -0.060319
2010-09-07 06:48:44 51°17.652 2°51.853 17.3704 4.1394 31.555231 -0.025495
2010-09-07 06:48:48 51°17.664 2°51.843 17.3681 4.141722 31.57156 -0.060319
2010-09-07 06:48:53 51°17.68 2°51.832 17.3716 4.141722 31.57156 -0.060319
2010-09-07 06:48:58 51°17.695 2°51.819 17.3723 4.140455 31.561931 -0.060319
2010-09-07 06:49:04 51°17.714 2°51.804 17.3769 4.140033 31.556638 -0.095143
2010-09-07 06:49:08 51°17.726 2°51.795 17.3784 4.140033 31.557206 -0.060319
2010-09-07 06:49:13 51°17.742 2°51.783 17.3777 4.140772 31.564622 -0.095143
2010-09-07 06:49:18 51°17.757 2°51.772 17.3761 4.142249 31.566958 -0.060319
2010-09-07 06:49:24 51°17.776 2°51.757 17.3754 4.142249 31.566958 -0.060319
2010-09-07 06:49:28 51°17.789 2°51.747 17.3744 4.136763 31.536776 -0.095143
2010-09-07 06:49:33 51°17.804 2°51.735 17.3744 4.141088 31.563338 -0.095143
2010-09-07 06:49:38 51°17.82 2°51.723 17.3736 4.143093 31.583224 -0.060319
2010-09-07 06:49:43 51°17.835 2°51.711 17.3745 4.142777 31.581101 -0.095143
2010-09-07 06:49:48 51°17.851 2°51.699 17.3752 4.144465 31.587498 -0.095143
2010-09-07 06:49:53 51°17.867 2°51.687 17.3781 4.144465 31.587498 -0.095143
2010-09-07 06:49:58 51°17.883 2°51.675 17.3776 4.147208 31.616511 -0.095143
2010-09-07 06:50:03 51°17.898 2°51.662 17.3761 4.148896 31.62404 -0.129967
2010-09-07 06:50:08 51°17.914 2°51.651 17.3765 4.149107 31.627541 -0.095143
2010-09-07 06:50:13 51°17.93 2°51.638 17.3805 4.143832 31.586662 -0.129967
2010-09-07 06:50:18 51°17.946 2°51.626 17.3795 4.147314 31.612289 -0.129967
2010-09-07 06:50:23 51°17.961 2°51.614 17.3813 4.147314 31.612289 -0.129967
2010-09-07 06:50:28 51°17.977 2°51.601 17.3845 4.144781 31.5936 -0.095143
2010-09-07 06:50:33 51°17.993 2°51.589 17.387 4.149002 31.627213 -0.129967
2010-09-07 06:50:38 51°18.009 2°51.577 17.3848 4.145309 31.600929 -0.129967
2010-09-07 06:50:43 51°18.024 2°51.564 17.3901 4.146258 31.601043 -0.095143
2010-09-07 06:50:48 51°18.04 2°51.552 17.39 4.147841 31.6145 -0.129967
2010-09-07 06:50:53 51°18.056 2°51.539 17.3868 4.147841 31.6145 -0.129967
2010-09-07 06:50:58 51°18.072 2°51.527 17.3867 4.149318 31.625922 -0.129967
2010-09-07 06:51:04 51°18.091 2°51.512 17.3899 4.148369 31.624675 -0.095143
2010-09-07 06:51:08 51°18.104 2°51.502 17.3936 4.150162 31.629685 -0.164791
2010-09-07 06:51:13 51°18.12 2°51.489 17.3926 4.151112 31.636621 -0.129967
2010-09-07 06:51:18 51°18.136 2°51.477 17.393 4.150901 31.63881 -0.129967
2010-09-07 06:51:24 51°18.155 2°51.462 17.398 4.150901 31.63881 -0.129967
2010-09-07 06:51:28 51°18.167 2°51.451 17.3979 4.15375 31.65791 -0.164791
2010-09-07 06:51:33 51°18.183 2°51.438 17.3951 4.155121 31.669573 -0.095143
2010-09-07 06:51:38 51°18.199 2°51.425 17.3968 4.156599 31.682134 -0.164791
2010-09-07 06:51:44 51°18.217 2°51.41 17.3955 4.158603 31.699753 -0.164791
2010-09-07 06:51:48 51°18.23 2°51.398 17.3947 4.154594 31.666796 -0.129967
2010-09-07 06:51:53 51°18.245 2°51.384 17.395 4.154594 31.666796 -0.129967
2010-09-07 06:51:58 51°18.261 2°51.37 17.3907 4.157126 31.68719 -0.164791
2010-09-07 06:52:03 51°18.276 2°51.356 17.3903 4.160819 31.714034 -0.164791
2010-09-07 06:52:08 51°18.291 2°51.34 17.39 4.164196 31.740466 -0.164791
2010-09-07 06:52:13 51°18.305 2°51.325 17.3887 4.162402 31.729776 -0.199615
2010-09-07 06:52:18 51°18.32 2°51.308 17.3871 4.161558 31.718604 -0.129967
2010-09-07 06:52:23 51°18.333 2°51.291 17.3879 4.161558 31.718604 -0.129967
2010-09-07 06:52:28 51°18.348 2°51.275 17.3917 4.160292 31.711259 -0.129967
2010-09-07 06:52:33 51°18.361 2°51.26 17.3936 4.165884 31.752539 -0.199615
2010-09-07 06:52:38 51°18.374 2°51.245 17.3958 4.162929 31.735405 -0.129967
2010-09-07 06:52:43 51°18.387 2°51.23 17.3923 4.162402 31.733201 -0.199615
2010-09-07 06:52:48 51°18.399 2°51.216 17.393 4.162929 31.73883 -0.199615
2010-09-07 06:52:53 51°18.411 2°51.202 17.3898 4.162929 31.73883 -0.199615
2010-09-07 06:52:58 51°18.423 2°51.189 17.3875 4.163985 31.749519 -0.234439
2010-09-07 06:53:03 51°18.433 2°51.176 17.3824 4.16409 31.752702 -0.234439
2010-09-07 06:53:08 51°18.442 2°51.164 17.3793 4.162507 31.734669 -0.199615
2010-09-07 06:53:13 51°18.451 2°51.153 17.3775 4.165462 31.765515 -0.199615
2010-09-07 06:53:18 51°18.46 2°51.143 17.3749 4.165989 31.762575 -0.199615
2010-09-07 06:53:23 51°18.468 2°51.134 17.3722 4.165989 31.762575 -0.199615
2010-09-07 06:53:28 51°18.475 2°51.124 17.3778 4.161663 31.724636 -0.234439
2010-09-07 06:53:33 51°18.482 2°51.115 17.3748 4.169788 31.790316 -0.234439
2010-09-07 06:53:38 51°18.488 2°51.107 17.3755 4.166517 31.760779 -0.234439
2010-09-07 06:53:44 51°18.496 2°51.098 17.3742 4.163562 31.738506 -0.269263
2010-09-07 06:53:48 51°18.501 2°51.093 17.3743 4.166517 31.771064 -0.269263
2010-09-07 06:53:53 51°18.506 2°51.086 17.3762 4.166517 31.771064 -0.269263
2010-09-07 06:53:58 51°18.511 2°51.08 17.3767 4.161558 31.728304 -0.269263
2010-09-07 06:54:04 51°18.516 2°51.073 17.3732 4.161452 31.733686 -0.304087
2010-09-07 06:54:08 51°18.519 2°51.069 17.3708 4.163246 31.744949 -0.269263
2010-09-07 06:54:13 51°18.523 2°51.063 17.3711 4.164196 31.755885 -0.234439
2010-09-07 06:54:18 51°18.526 2°51.057 17.3688 4.164618 31.754334 -0.304087
2010-09-07 06:54:23 51°18.529 2°51.051 17.3705 4.164618 31.754334 -0.304087
2010-09-07 06:54:28 51°18.531 2°51.045 17.3698 4.167572 31.781756 -0.304087
2010-09-07 06:54:33 51°18.533 2°51.039 17.3676 4.165251 31.771151 -0.269263
2010-09-07 06:54:38 51°18.534 2°51.033 17.3675 4.163774 31.749437 -0.269263
2010-09-07 06:54:43 51°18.535 2°51.027 17.3653 4.166728 31.779148 -0.269263
2010-09-07 06:54:48 51°18.535 2°51.022 17.3657 4.16409 31.761273 -0.269263
2010-09-07 06:54:53 51°18.536 2°51.018 17.3651 4.16409 31.761273 -0.269263
2010-09-07 06:54:58 51°18.536 2°51.014 17.364 4.164301 31.767071 -0.304087
2010-09-07 06:55:03 51°18.535 2°51.01 17.3633 4.166834 31.785766 -0.304087
2010-09-07 06:55:08 51°18.535 2°51.007 17.3635 4.161558 31.743151 -0.304087
2010-09-07 06:55:13 51°18.534 2°51.004 17.3633 4.163035 31.757438 -0.269263
2010-09-07 06:55:18 51°18.533 2°51.001 17.3628 4.16599 31.771148 -0.269263
2010-09-07 06:55:23 51°18.532 2°51 17.3603 4.16599 31.771148 -0.269263
2010-09-07 06:55:28 51°18.531 2°50.998 17.3603 4.166834 31.777759 -0.304087
2010-09-07 06:55:33 51°18.529 2°50.997 17.3601 4.167678 31.792951 -0.269263
2010-09-07 06:55:38 51°18.528 2°50.995 17.3616 4.163774 31.756865 -0.269263
2010-09-07 06:55:44 51°18.527 2°50.993 17.3611 4.165673 31.784468 -0.304087
2010-09-07 06:55:48 51°18.526 2°50.992 17.3604 4.162086 31.744784 -0.304087
2010-09-07 06:55:53 51°18.525 2°50.991 17.3604 4.162086 31.744784 -0.304087
2010-09-07 06:55:58 51°18.524 2°50.989 17.3612 4.165884 31.77025 -0.338911
2010-09-07 06:56:04 51°18.523 2°50.987 17.3617 4.163985 31.769524 -0.304087
2010-09-07 06:56:08 51°18.523 2°50.986 17.3611 4.161875 31.752132 -0.304087
2010-09-07 06:56:13 51°18.522 2°50.985 17.36 4.160609 31.744212 -0.304087
2010-09-07 06:56:18 51°18.521 2°50.983 17.3585 4.163985 31.763234 -0.304087
2010-09-07 06:56:23 51°18.52 2°50.981 17.3602 4.163985 31.763234 -0.304087
2010-09-07 06:56:28 51°18.519 2°50.98 17.361 4.166939 31.792386 -0.269263
2010-09-07 06:56:33 51°18.518 2°50.978 17.3622 4.164618 31.772053 -0.269263
2010-09-07 06:56:39 51°18.517 2°50.976 17.3592 4.162086 31.745927 -0.304087
2010-09-07 06:56:44 51°18.516 2°50.974 17.3624 4.162613 31.749274 -0.338911
2010-09-07 06:56:48 51°18.516 2°50.973 17.3614 4.164724 31.777528 -0.304087
2010-09-07 06:56:54 51°18.515 2°50.971 17.3661 4.164724 31.777528 -0.304087
2010-09-07 06:56:59 51°18.514 2°50.97 17.3618 4.161769 31.744947 -0.269263
2010-09-07 06:57:04 51°18.513 2°50.968 17.3607 4.163141 31.754335 -0.304087
2010-09-07 06:57:08 51°18.512 2°50.967 17.3589 4.16409 31.759559 -0.269263
2010-09-07 06:57:14 51°18.511 2°50.964 17.3598 4.15776 31.721104 -0.338911
2010-09-07 06:57:19 51°18.511 2°50.963 17.3567 4.160081 31.73058 -0.304087
2010-09-07 06:57:24 51°18.51 2°50.961 17.356 4.160081 31.73058 -0.304087
2010-09-07 06:57:28 51°18.509 2°50.96 17.3557 4.164301 31.765356 -0.338911
2010-09-07 06:57:33 51°18.509 2°50.958 17.3564 4.164196 31.764458 -0.304087
2010-09-07 06:57:38 51°18.508 2°50.957 17.3569 4.163141 31.76291 -0.338911
2010-09-07 06:57:44 51°18.507 2°50.955 17.3579 4.160187 31.739476 -0.304087
2010-09-07 06:57:48 51°18.506 2°50.954 17.3579 4.161242 31.740457 -0.304087
2010-09-07 06:57:53 51°18.505 2°50.951 17.3589 4.161242 31.740457 -0.304087
2010-09-07 06:57:58 51°18.504 2°50.95 17.3574 4.163352 31.754416 -0.304087
2010-09-07 06:58:04 51°18.503 2°50.948 17.3575 4.163774 31.766584 -0.338911
2010-09-07 06:58:08 51°18.503 2°50.946 17.3552 4.159659 31.738414 -0.304087
2010-09-07 06:58:13 51°18.502 2°50.945 17.3551 4.165884 31.787409 -0.338911
2010-09-07 06:58:18 51°18.501 2°50.943 17.3575 4.164091 31.771566 -0.304087
2010-09-07 06:58:24 51°18.5 2°50.941 17.3534 4.164091 31.771566 -0.304087
2010-09-07 06:58:28 51°18.5 2°50.939 17.3567 4.162191 31.750254 -0.304087
2010-09-07 06:58:33 51°18.499 2°50.937 17.3547 4.161769 31.753521 -0.269263
2010-09-07 06:58:38 51°18.498 2°50.935 17.3552 4.16409 31.761273 -0.304087
2010-09-07 06:58:43 51°18.497 2°50.933 17.3526 4.160503 31.748459 -0.338911
2010-09-07 06:58:48 51°18.496 2°50.931 17.3526 4.160714 31.743396 -0.338911
2010-09-07 06:58:53 51°18.496 2°50.929 17.3545 4.160714 31.743396 -0.338911
2010-09-07 06:58:58 51°18.495 2°50.928 17.3534 4.165146 31.777688 -0.304087
2010-09-07 06:59:04 51°18.494 2°50.925 17.3507 4.164302 31.772219 -0.338911
2010-09-07 06:59:08 51°18.493 2°50.924 17.3534 4.163774 31.768299 -0.338911
2010-09-07 06:59:13 51°18.493 2°50.922 17.3521 4.164513 31.775159 -0.304087
2010-09-07 06:59:18 51°18.492 2°50.92 17.3536 4.159343 31.740864 -0.338911
2010-09-07 06:59:23 51°18.491 2°50.918 17.3524 4.159343 31.740864 -0.338911
2010-09-07 06:59:28 51°18.49 2°50.916 17.3524 4.160925 31.745192 -0.304087
2010-09-07 06:59:33 51°18.49 2°50.914 17.3508 4.161347 31.74707 -0.338911
2010-09-07 06:59:38 51°18.489 2°50.912 17.3499 4.16293 31.760542 -0.304087
2010-09-07 06:59:44 51°18.488 2°50.91 17.3511 4.165462 31.782099 -0.338911
2010-09-07 06:59:48 51°18.487 2°50.908 17.3508 4.162719 31.75703 -0.304087
2010-09-07 06:59:53 51°18.487 2°50.907 17.3493 4.162719 31.75703 -0.304087
2010-09-07 06:59:58 51°18.486 2°50.904 17.3492 4.163669 31.770261 -0.338911
2010-09-07 07:00:04 51°18.485 2°50.902 17.3463 4.162508 31.759236 -0.338911
2010-09-07 07:00:08 51°18.485 2°50.901 17.3484 4.161031 31.745518 -0.338911
2010-09-07 07:00:13 51°18.484 2°50.899 17.3501 4.160398 31.741273 -0.304087
2010-09-07 07:00:18 51°18.484 2°50.897 17.3487 4.15892 31.731555 -0.338911
2010-09-07 07:00:23 51°18.483 2°50.895 17.3489 4.15892 31.731555 -0.338911
2010-09-07 07:00:28 51°18.482 2°50.893 17.3491 4.161558 31.739152 -0.338911
2010-09-07 07:00:33 51°18.481 2°50.891 17.3474 4.159975 31.733681 -0.304087
2010-09-07 07:00:38 51°18.48 2°50.889 17.3483 4.164935 31.777036 -0.304087
2010-09-07 07:00:44 51°18.48 2°50.886 17.3487 4.156388 31.716282 -0.304087
2010-09-07 07:00:48 51°18.479 2°50.885 17.35 4.158815 31.738658 -0.338911
2010-09-07 07:00:53 51°18.478 2°50.882 17.35 4.158815 31.738658 -0.338911
2010-09-07 07:00:58 51°18.477 2°50.88 17.3471 4.155755 31.708037 -0.338911
2010-09-07 07:01:04 51°18.476 2°50.878 17.3479 4.162719 31.76332 -0.338911
2010-09-07 07:01:08 51°18.476 2°50.876 17.3473 4.163141 31.766342 -0.338911
2010-09-07 07:01:13 51°18.475 2°50.874 17.3503 4.157127 31.720285 -0.338911
2010-09-07 07:01:18 51°18.475 2°50.872 17.3519 4.163035 31.766015 -0.304087
2010-09-07 07:01:23 51°18.474 2°50.87 17.3488 4.163035 31.766015 -0.304087
2010-09-07 07:01:28 51°18.473 2°50.868 17.3514 4.161769 31.752949 -0.338911
2010-09-07 07:01:33 51°18.472 2°50.866 17.3499 4.161558 31.748866 -0.304087
2010-09-07 07:01:38 51°18.472 2°50.864 17.3485 4.160187 31.74462 -0.338911
2010-09-07 07:01:44 51°18.471 2°50.862 17.3479 4.157127 31.721428 -0.338911
2010-09-07 07:01:48 51°18.47 2°50.86 17.3478 4.15987 31.746499 -0.304087
2010-09-07 07:01:53 51°18.47 2°50.858 17.3488 4.15987 31.746499 -0.304087
2010-09-07 07:01:58 51°18.47 2°50.857 17.3519 4.162297 31.760871 -0.304087
2010-09-07 07:02:04 51°18.469 2°50.854 17.3459 4.161031 31.754094 -0.269263
2010-09-07 07:02:08 51°18.468 2°50.852 17.3476 4.160187 31.750338 -0.269263
2010-09-07 07:02:12 51°18.468 2°50.85 17.3451 4.16198 31.758176 -0.304087
2010-09-07 07:02:18 51°18.467 2°50.848 17.3453 4.165251 31.780875 -0.338911
2010-09-07 07:02:24 51°18.465 2°50.845 17.3463 4.165251 31.780875 -0.338911
2010-09-07 07:02:28 51°18.465 2°50.843 17.3455 4.163141 31.767486 -0.338911
2010-09-07 07:02:33 51°18.465 2°50.842 17.345 4.162825 31.768795 -0.304087
2010-09-07 07:02:38 51°18.464 2°50.84 17.3464 4.160186 31.735477 -0.338911
2010-09-07 07:02:44 51°18.464 2°50.838 17.3447 4.159343 31.736863 -0.338911
2010-09-07 07:02:48 51°18.463 2°50.835 17.346 4.160292 31.743804 -0.338911
2010-09-07 07:02:53 51°18.462 2°50.833 17.3467 4.160292 31.743804 -0.338911
2010-09-07 07:02:58 51°18.461 2°50.831 17.3459 4.160081 31.736293 -0.304087
2010-09-07 07:03:04 51°18.46 2°50.828 17.3433 4.158815 31.736372 -0.304087
2010-09-07 07:03:08 51°18.46 2°50.827 17.347 4.160503 31.754749 -0.338911
2010-09-07 07:03:13 51°18.459 2°50.824 17.3445 4.161453 31.760548 -0.338911
2010-09-07 07:03:18 51°18.458 2°50.822 17.3442 4.162719 31.764464 -0.269263
2010-09-07 07:03:24 51°18.457 2°50.819 17.3441 4.162719 31.764464 -0.269263
2010-09-07 07:03:28 51°18.456 2°50.818 17.3448 4.162508 31.762668 -0.304087
2010-09-07 07:03:33 51°18.456 2°50.815 17.3432 4.161769 31.759239 -0.304087
2010-09-07 07:03:38 51°18.455 2°50.813 17.3431 4.159554 31.740374 -0.304087
2010-09-07 07:03:44 51°18.455 2°50.811 17.3457 4.164302 31.776795 -0.338911
2010-09-07 07:03:48 51°18.454 2°50.809 17.3455 4.158287 31.732452 -0.269263
2010-09-07 07:03:53 51°18.454 2°50.807 17.3423 4.158287 31.732452 -0.269263
2010-09-07 07:03:58 51°18.453 2°50.805 17.3428 4.161031 31.754666 -0.304087
2010-09-07 07:04:04 51°18.452 2°50.802 17.3446 4.156177 31.713343 -0.338911
2010-09-07 07:04:08 51°18.452 2°50.801 17.3422 4.163352 31.773287 -0.373735
2010-09-07 07:04:13 51°18.451 2°50.799 17.3438 4.161769 31.764388 -0.338911
2010-09-07 07:04:18 51°18.45 2°50.796 17.343 4.158182 31.730982 -0.304087
2010-09-07 07:04:24 51°18.449 2°50.794 17.3432 4.158182 31.730982 -0.304087
2010-09-07 07:04:28 51°18.449 2°50.792 17.3461 4.160081 31.74315 -0.373735
2010-09-07 07:04:33 51°18.448 2°50.79 17.3445 4.162191 31.758257 -0.304087
2010-09-07 07:04:38 51°18.447 2°50.788 17.3424 4.161558 31.758014 -0.304087
2010-09-07 07:04:43 51°18.447 2°50.786 17.3438 4.162508 31.765528 -0.304087
2010-09-07 07:04:48 51°18.446 2°50.783 17.344 4.161453 31.754828 -0.338911
2010-09-07 07:04:53 51°18.445 2°50.781 17.3433 4.161453 31.754828 -0.338911
2010-09-07 07:04:58 51°18.445 2°50.779 17.3419 4.164407 31.782845 -0.338911
2010-09-07 07:05:04 51°18.444 2°50.777 17.3425 4.157021 31.722815 -0.338911
2010-09-07 07:05:08 51°18.444 2°50.775 17.3431 4.163247 31.7701 -0.304087
2010-09-07 07:05:13 51°18.443 2°50.773 17.3445 4.160187 31.74462 -0.373735
2010-09-07 07:05:18 51°18.443 2°50.77 17.343 4.163563 31.777374 -0.304087
2010-09-07 07:05:24 51°18.442 2°50.768 17.3434 4.163563 31.777374 -0.304087
2010-09-07 07:05:28 51°18.441 2°50.766 17.3416 4.161031 31.756954 -0.338911
2010-09-07 07:05:33 51°18.44 2°50.763 17.3429 4.161769 31.762671 -0.338911
2010-09-07 07:05:38 51°18.44 2°50.761 17.3434 4.160925 31.74462 -0.338911
2010-09-07 07:05:43 51°18.439 2°50.759 17.3437 4.159026 31.738169 -0.338911
2010-09-07 07:05:48 51°18.438 2°50.756 17.3435 4.159448 31.743477 -0.338911
2010-09-07 07:05:53 51°18.438 2°50.754 17.3466 4.159448 31.743477 -0.338911
2010-09-07 07:05:58 51°18.437 2°50.752 17.3452 4.164935 31.788482 -0.338911
2010-09-07 07:06:04 51°18.436 2°50.749 17.3461 4.162719 31.768469 -0.338911
2010-09-07 07:06:08 51°18.436 2°50.747 17.3475 4.162086 31.759074 -0.304087
2010-09-07 07:06:13 51°18.435 2°50.745 17.3468 4.158182 31.736126 -0.338911
2010-09-07 07:06:18 51°18.434 2°50.742 17.3455 4.159237 31.735964 -0.304087
2010-09-07 07:06:24 51°18.434 2°50.74 17.3457 4.159237 31.735964 -0.304087
2010-09-07 07:06:28 51°18.433 2°50.738 17.3456 4.159554 31.745519 -0.338911
2010-09-07 07:06:33 51°18.432 2°50.736 17.3463 4.164091 31.777288 -0.338911
2010-09-07 07:06:38 51°18.432 2°50.733 17.3433 4.159765 31.741027 -0.304087
2010-09-07 07:06:43 51°18.431 2°50.731 17.3445 4.160714 31.747968 -0.304087
2010-09-07 07:06:48 51°18.431 2°50.729 17.3451 4.166306 31.79043 -0.269263
2010-09-07 07:06:53 51°18.43 2°50.726 17.346 4.166306 31.79043 -0.269263
2010-09-07 07:06:58 51°18.429 2°50.724 17.3446 4.163774 31.779743 -0.338911
2010-09-07 07:07:04 51°18.428 2°50.721 17.3448 4.16198 31.762752 -0.338911
2010-09-07 07:07:08 51°18.428 2°50.719 17.3451 4.163247 31.771245 -0.304087
2010-09-07 07:07:13 51°18.427 2°50.717 17.3463 4.162402 31.760626 -0.304087
2010-09-07 07:07:18 51°18.426 2°50.714 17.3474 4.163141 31.772063 -0.338911
2010-09-07 07:07:23 51°18.426 2°50.712 17.3469 4.163141 31.772063 -0.338911
2010-09-07 07:07:28 51°18.425 2°50.709 17.3485 4.160925 31.756055 -0.338911
2010-09-07 07:07:33 51°18.424 2°50.707 17.347 4.162191 31.761117 -0.304087
2010-09-07 07:07:38 51°18.424 2°50.705 17.3482 4.165146 31.788562 -0.338911
2010-09-07 07:07:43 51°18.423 2°50.702 17.3477 4.162402 31.764629 -0.269263
2010-09-07 07:07:48 51°18.423 2°50.7 17.3463 4.161769 31.76496 -0.269263
2010-09-07 07:07:53 51°18.422 2°50.697 17.3461 4.161769 31.76496 -0.269263
2010-09-07 07:07:58 51°18.421 2°50.695 17.3509 4.162297 31.760299 -0.304087
2010-09-07 07:08:04 51°18.421 2°50.692 17.3473 4.162614 31.77501 -0.338911
2010-09-07 07:08:08 51°18.42 2°50.69 17.3478 4.158182 31.730411 -0.338911
2010-09-07 07:08:13 51°18.419 2°50.688 17.3488 4.161769 31.760955 -0.304087
2010-09-07 07:08:18 51°18.419 2°50.685 17.3474 4.158815 31.742661 -0.304087
2010-09-07 07:08:24 51°18.418 2°50.682 17.3484 4.158815 31.742661 -0.304087
2010-09-07 07:08:28 51°18.418 2°50.681 17.3455 4.162719 31.763892 -0.304087
2010-09-07 07:08:33 51°18.417 2°50.678 17.3474 4.159765 31.741599 -0.269263
2010-09-07 07:08:38 51°18.417 2°50.676 17.3447 4.164829 31.777854 -0.338911
2010-09-07 07:08:43 51°18.416 2°50.673 17.3438 4.162719 31.77133 -0.304087
2010-09-07 07:08:48 51°18.416 2°50.671 17.3457 4.158393 31.725922 -0.304087
2010-09-07 07:08:53 51°18.415 2°50.669 17.3464 4.158393 31.725922 -0.304087
2010-09-07 07:08:58 51°18.414 2°50.666 17.3467 4.163246 31.767812 -0.304087
2010-09-07 07:09:04 51°18.414 2°50.664 17.3459 4.161136 31.754421 -0.304087
2010-09-07 07:09:08 51°18.413 2°50.662 17.3477 4.162297 31.770597 -0.338911
2010-09-07 07:09:13 51°18.413 2°50.659 17.3476 4.161558 31.75687 -0.338911
2010-09-07 07:09:18 51°18.412 2°50.657 17.3459 4.164302 31.783091 -0.304087
2010-09-07 07:09:24 51°18.411 2°50.654 17.3448 4.164302 31.783091 -0.304087
2010-09-07 07:09:28 51°18.411 2°50.652 17.3471 4.162508 31.768388 -0.338911
2010-09-07 07:09:33 51°18.41 2°50.649 17.3479 4.161875 31.76357 -0.304087
2010-09-07 07:09:38 51°18.41 2°50.647 17.3466 4.158498 31.726249 -0.338911
2010-09-07 07:09:43 51°18.409 2°50.645 17.3463 4.161347 31.749356 -0.304087
2010-09-07 07:09:48 51°18.408 2°50.642 17.3433 4.166517 31.793944 -0.304087
2010-09-07 07:09:53 51°18.408 2°50.64 17.3432 4.166517 31.793944 -0.304087
2010-09-07 07:09:58 51°18.407 2°50.637 17.3454 4.163669 31.776555 -0.338911
2010-09-07 07:10:03 51°18.407 2°50.635 17.3448 4.161347 31.763654 -0.304087
2010-09-07 07:10:08 51°18.406 2°50.632 17.3437 4.161347 31.753358 -0.304087
2010-09-07 07:10:13 51°18.406 2°50.63 17.3438 4.163352 31.767566 -0.304087
2010-09-07 07:10:18 51°18.405 2°50.628 17.3469 4.161769 31.755236 -0.338911
2010-09-07 07:10:24 51°18.404 2°50.625 17.3459 4.161769 31.755236 -0.338911
2010-09-07 07:10:28 51°18.404 2°50.622 17.3443 4.15987 31.739639 -0.304087
2010-09-07 07:10:33 51°18.403 2°50.62 17.3458 4.162508 31.767244 -0.338911
2010-09-07 07:10:38 51°18.402 2°50.618 17.3462 4.166306 31.788713 -0.338911
2010-09-07 07:10:43 51°18.402 2°50.615 17.347 4.165146 31.787417 -0.304087
2010-09-07 07:10:48 51°18.401 2°50.613 17.3488 4.16293 31.77141 -0.304087
2010-09-07 07:10:53 51°18.401 2°50.61 17.3475 4.16293 31.77141 -0.304087
2010-09-07 07:10:58 51°18.4 2°50.608 17.3467 4.161242 31.757035 -0.338911
2010-09-07 07:11:03 51°18.399 2°50.605 17.348 4.165146 31.790279 -0.304087
2010-09-07 07:11:08 51°18.399 2°50.603 17.3474 4.162191 31.762833 -0.304087
2010-09-07 07:11:13 51°18.398 2°50.6 17.3481 4.159343 31.737434 -0.338911
2010-09-07 07:11:18 51°18.398 2°50.598 17.3497 4.166201 31.799265 -0.304087
2010-09-07 07:11:24 51°18.397 2°50.595 17.3501 4.166201 31.799265 -0.304087
2010-09-07 07:11:28 51°18.396 2°50.593 17.3485 4.16504 31.782512 -0.304087
2010-09-07 07:11:33 51°18.396 2°50.59 17.351 4.168206 31.80202 -0.304087
2010-09-07 07:11:38 51°18.395 2°50.587 17.3506 4.163247 31.772389 -0.304087
2010-09-07 07:11:44 51°18.395 2°50.584 17.3512 4.162508 31.758093 -0.304087
2010-09-07 07:11:48 51°18.394 2°50.581 17.3521 4.165357 31.777768 -0.304087
2010-09-07 07:11:53 51°18.394 2°50.578 17.3539 4.165357 31.777768 -0.304087
2010-09-07 07:11:58 51°18.393 2°50.573 17.3527 4.165779 31.781361 -0.304087
2010-09-07 07:12:03 51°18.393 2°50.568 17.353 4.159448 31.736618 -0.304087
2010-09-07 07:12:08 51°18.393 2°50.562 17.3545 4.15987 31.74364 -0.304087
2010-09-07 07:12:13 51°18.394 2°50.556 17.3541 4.163141 31.771491 -0.338911
2010-09-07 07:12:18 51°18.394 2°50.549 17.3588 4.162086 31.759074 -0.304087
2010-09-07 07:12:23 51°18.395 2°50.541 17.3624 4.162086 31.759074 -0.304087
2010-09-07 07:12:28 51°18.396 2°50.533 17.3636 4.164724 31.778672 -0.269263
2010-09-07 07:12:33 51°18.397 2°50.524 17.3664 4.165146 31.790852 -0.304087
2010-09-07 07:12:38 51°18.399 2°50.515 17.3686 4.165568 31.793874 -0.304087
2010-09-07 07:12:44 51°18.403 2°50.504 17.3686 4.165884 31.783976 -0.338911
2010-09-07 07:12:48 51°18.406 2°50.496 17.3681 4.164091 31.777288 -0.304087
2010-09-07 07:12:53 51°18.41 2°50.488 17.3694 4.164091 31.777288 -0.304087
2010-09-07 07:12:58 51°18.414 2°50.479 17.3713 4.163669 31.770261 -0.304087
2010-09-07 07:13:03 51°18.42 2°50.472 17.3771 4.166623 31.791981 -0.304087
2010-09-07 07:13:08 51°18.426 2°50.466 17.3799 4.167045 31.79214 -0.304087
2010-09-07 07:13:13 51°18.432 2°50.461 17.3826 4.167889 31.796464 -0.304087
2010-09-07 07:13:18 51°18.439 2°50.457 17.383 4.170738 31.823007 -0.269263
2010-09-07 07:13:23 51°18.446 2°50.455 17.3792 4.170738 31.823007 -0.269263
2010-09-07 07:13:28 51°18.454 2°50.454 17.3799 4.1681 31.797688 -0.304087
2010-09-07 07:13:33 51°18.463 2°50.451 17.3779 4.167783 31.792132 -0.234439
2010-09-07 07:13:38 51°18.472 2°50.449 17.3784 4.168627 31.791307 -0.269263
2010-09-07 07:13:44 51°18.484 2°50.445 17.381 4.167361 31.791401 -0.269263
2010-09-07 07:13:48 51°18.492 2°50.442 17.3822 4.16926 31.797266 -0.234439
2010-09-07 07:13:53 51°18.502 2°50.439 17.3861 4.16926 31.797266 -0.234439
2010-09-07 07:13:58 51°18.513 2°50.434 17.3839 4.171476 31.818413 -0.234439
2010-09-07 07:14:03 51°18.525 2°50.43 17.3824 4.17327 31.827954 -0.234439
2010-09-07 07:14:08 51°18.537 2°50.424 17.3817 4.172531 31.828539 -0.234439
2010-09-07 07:14:13 51°18.549 2°50.419 17.3799 4.176013 31.845573 -0.234439
2010-09-07 07:14:18 51°18.562 2°50.413 17.3781 4.171265 31.8149 -0.234439
2010-09-07 07:14:23 51°18.575 2°50.407 17.3748 4.171265 31.8149 -0.234439
2010-09-07 07:14:28 51°18.589 2°50.401 17.374 4.173692 31.834409 -0.269263
2010-09-07 07:14:33 51°18.603 2°50.394 17.376 4.173059 31.82673 -0.269263
2010-09-07 07:14:38 51°18.618 2°50.388 17.3729 4.176224 31.845077 -0.234439
2010-09-07 07:14:44 51°18.636 2°50.381 17.3694 4.172426 31.823633 -0.234439
2010-09-07 07:14:48 51°18.648 2°50.375 17.3711 4.173376 31.832288 -0.304087
2010-09-07 07:14:53 51°18.664 2°50.369 17.3731 4.173376 31.832288 -0.304087
2010-09-07 07:14:58 51°18.68 2°50.363 17.3731 4.173059 31.82673 -0.269263
2010-09-07 07:15:03 51°18.696 2°50.358 17.3731 4.172215 31.821837 -0.234439
2010-09-07 07:15:08 51°18.713 2°50.352 17.3748 4.168522 31.795557 -0.304087
2010-09-07 07:15:13 51°18.729 2°50.347 17.3805 4.169894 31.800937 -0.234439
2010-09-07 07:15:18 51°18.746 2°50.342 17.3827 4.16599 31.774006 -0.304087
2010-09-07 07:15:23 51°18.763 2°50.338 17.3846 4.16599 31.774006 -0.304087
2010-09-07 07:15:28 51°18.779 2°50.334 17.3841 4.170527 31.811476 -0.234439
2010-09-07 07:15:33 51°18.796 2°50.329 17.3862 4.171582 31.829048 -0.269263
2010-09-07 07:15:38 51°18.813 2°50.325 17.3864 4.166834 31.78405 -0.338911
2010-09-07 07:15:44 51°18.833 2°50.319 17.3894 4.17021 31.807064 -0.269263
2010-09-07 07:15:48 51°18.847 2°50.317 17.3902 4.169155 31.788933 -0.304087
2010-09-07 07:15:53 51°18.864 2°50.312 17.3924 4.169155 31.788933 -0.304087
2010-09-07 07:15:58 51°18.881 2°50.308 17.3954 4.171371 31.81637 -0.269263
2010-09-07 07:16:03 51°18.898 2°50.304 17.3969 4.175064 31.841501 -0.269263
2010-09-07 07:16:08 51°18.915 2°50.3 17.3991 4.17327 31.829671 -0.269263
2010-09-07 07:16:13 51°18.931 2°50.296 17.4014 4.174325 31.835788 -0.234439
2010-09-07 07:16:18 51°18.948 2°50.292 17.4048 4.177596 31.861334 -0.234439
2010-09-07 07:16:23 51°18.965 2°50.288 17.4069 4.177596 31.861334 -0.234439
2010-09-07 07:16:28 51°18.982 2°50.285 17.4123 4.177068 31.853979 -0.269263
2010-09-07 07:16:33 51°18.999 2°50.281 17.4155 4.17728 31.85864 -0.269263
2010-09-07 07:16:38 51°19.016 2°50.277 17.4195 4.179073 31.869893 -0.269263
2010-09-07 07:16:44 51°19.036 2°50.273 17.4245 4.178757 31.868346 -0.269263
2010-09-07 07:16:48 51°19.05 2°50.269 17.4255 4.184138 31.902098 -0.269263
2010-09-07 07:16:53 51°19.067 2°50.265 17.4287 4.184138 31.902098 -0.269263
2010-09-07 07:16:58 51°19.084 2°50.262 17.4331 4.182344 31.885116 -0.199615
2010-09-07 07:17:03 51°19.101 2°50.258 17.4354 4.183927 31.90317 -0.234439
2010-09-07 07:17:08 51°19.118 2°50.255 17.4398 4.184771 31.906911 -0.234439
2010-09-07 07:17:13 51°19.135 2°50.251 17.4447 4.188042 31.924415 -0.234439
2010-09-07 07:17:18 51°19.152 2°50.248 17.4478 4.189836 31.946565 -0.234439
2010-09-07 07:17:23 51°19.169 2°50.245 17.4523 4.189836 31.946565 -0.234439
2010-09-07 07:17:28 51°19.186 2°50.242 17.4566 4.188886 31.936188 -0.234439
2010-09-07 07:17:33 51°19.203 2°50.238 17.4605 4.188675 31.92349 -0.234439
2010-09-07 07:17:38 51°19.221 2°50.234 17.4633 4.196694 31.990561 -0.199615
2010-09-07 07:17:44 51°19.241 2°50.23 17.4659 4.197222 31.994475 -0.164791
2010-09-07 07:17:48 51°19.255 2°50.228 17.4691 4.196378 31.987868 -0.234439
2010-09-07 07:17:53 51°19.272 2°50.224 17.4698 4.196378 31.987868 -0.234439
2010-09-07 07:17:58 51°19.289 2°50.221 17.4731 4.199965 32.010341 -0.164791
2010-09-07 07:18:03 51°19.306 2°50.217 17.4748 4.19891 32.001365 -0.234439
2010-09-07 07:18:08 51°19.323 2°50.214 17.4742 4.202286 32.020887 -0.164791
2010-09-07 07:18:13 51°19.341 2°50.211 17.4763 4.203341 32.028712 -0.199615
2010-09-07 07:18:18 51°19.358 2°50.208 17.4769 4.202919 32.027997 -0.129967
2010-09-07 07:18:23 51°19.375 2°50.204 17.4767 4.202919 32.027997 -0.129967
2010-09-07 07:18:28 51°19.392 2°50.201 17.4775 4.203869 32.029173 -0.129967
2010-09-07 07:18:33 51°19.41 2°50.198 17.4789 4.208195 32.060213 -0.164791
2010-09-07 07:18:38 51°19.427 2°50.195 17.4793 4.208301 32.059959 -0.164791
2010-09-07 07:18:44 51°19.447 2°50.19 17.4792 4.210094 32.074063 -0.199615
2010-09-07 07:18:48 51°19.461 2°50.187 17.4809 4.209461 32.072708 -0.164791
2010-09-07 07:18:53 51°19.479 2°50.184 17.4816 4.209461 32.072708 -0.164791
2010-09-07 07:18:58 51°19.496 2°50.181 17.4812 4.211044 32.086747 -0.164791
2010-09-07 07:19:03 51°19.514 2°50.178 17.4819 4.210517 32.076501 -0.164791
2010-09-07 07:19:08 51°19.531 2°50.175 17.4845 4.212416 32.089774 -0.164791
2010-09-07 07:19:13 51°19.548 2°50.172 17.4848 4.211677 32.084069 -0.164791
2010-09-07 07:19:18 51°19.565 2°50.169 17.4833 4.21231 32.091756 -0.129967
2010-09-07 07:19:23 51°19.582 2°50.166 17.4859 4.21231 32.091756 -0.129967
2010-09-07 07:19:28 51°19.6 2°50.163 17.4868 4.215581 32.109781 -0.199615
2010-09-07 07:19:33 51°19.617 2°50.16 17.4886 4.215265 32.103633 -0.199615
2010-09-07 07:19:38 51°19.635 2°50.156 17.4884 4.213999 32.097474 -0.199615
2010-09-07 07:19:44 51°19.656 2°50.152 17.4908 4.216003 32.111642 -0.164791
2010-09-07 07:19:48 51°19.669 2°50.15 17.4926 4.213682 32.098238 -0.199615
2010-09-07 07:19:53 51°19.687 2°50.146 17.4939 4.213682 32.098238 -0.199615
2010-09-07 07:19:58 51°19.704 2°50.143 17.495 4.214948 32.104398 -0.234439
2010-09-07 07:20:03 51°19.722 2°50.14 17.4965 4.217586 32.126253 -0.199615
2010-09-07 07:20:08 51°19.739 2°50.137 17.5008 4.221068 32.151251 -0.199615
2010-09-07 07:20:13 51°19.757 2°50.133 17.502 4.220119 32.137987 -0.199615
2010-09-07 07:20:18 51°19.774 2°50.13 17.5036 4.217797 32.125742 -0.234439
2010-09-07 07:20:23 51°19.791 2°50.126 17.5071 4.217797 32.125742 -0.234439
2010-09-07 07:20:28 51°19.809 2°50.123 17.5092 4.220329 32.136323 -0.164791
2010-09-07 07:20:33 51°19.826 2°50.119 17.5108 4.220224 32.137732 -0.164791
2010-09-07 07:20:38 51°19.843 2°50.116 17.5155 4.221279 32.149586 -0.164791
2010-09-07 07:20:44 51°19.864 2°50.112 17.5161 4.220857 32.144267 -0.164791
2010-09-07 07:20:48 51°19.878 2°50.11 17.5169 4.222229 32.151317 -0.234439
2010-09-07 07:20:53 51°19.895 2°50.106 17.5189 4.222229 32.151317 -0.234439
2010-09-07 07:20:58 51°19.912 2°50.102 17.5214 4.22149 32.154264 -0.199615
2010-09-07 07:21:03 51°19.93 2°50.098 17.5218 4.225394 32.1765 -0.199615
2010-09-07 07:21:08 51°19.947 2°50.094 17.525 4.228982 32.196613 -0.234439
2010-09-07 07:21:13 51°19.965 2°50.09 17.5262 4.225816 32.174896 -0.234439
2010-09-07 07:21:18 51°19.982 2°50.087 17.5273 4.229193 32.207066 -0.199615
2010-09-07 07:21:23 51°20 2°50.083 17.5297 4.229193 32.207066 -0.199615
2010-09-07 07:21:28 51°20.017 2°50.079 17.532 4.226872 32.182712 -0.269263
2010-09-07 07:21:33 51°20.034 2°50.075 17.5321 4.222862 32.153817 -0.199615
2010-09-07 07:21:38 51°20.051 2°50.071 17.5329 4.228243 32.190911 -0.199615
2010-09-07 07:21:44 51°20.072 2°50.067 17.5319 4.228982 32.193727 -0.234439
2010-09-07 07:21:48 51°20.086 2°50.063 17.5321 4.23162 32.214418 -0.199615
2010-09-07 07:21:53 51°20.103 2°50.06 17.5319 4.23162 32.214418 -0.199615
2010-09-07 07:21:58 51°20.121 2°50.056 17.5313 4.23257 32.231156 -0.234439
2010-09-07 07:22:03 51°20.138 2°50.052 17.5323 4.23162 32.212109 -0.164791
2010-09-07 07:22:08 51°20.155 2°50.049 17.5329 4.232042 32.206462 -0.199615
2010-09-07 07:22:13 51°20.173 2°50.045 17.5282 4.23067 32.198844 -0.164791
2010-09-07 07:22:18 51°20.19 2°50.041 17.5282 4.232042 32.208193 -0.164791
2010-09-07 07:22:23 51°20.207 2°50.037 17.5257 4.232042 32.208193 -0.164791
2010-09-07 07:22:28 51°20.225 2°50.033 17.5238 4.236263 32.243485 -0.199615
2010-09-07 07:22:33 51°20.242 2°50.029 17.5237 4.235313 32.235414 -0.199615
2010-09-07 07:22:38 51°20.259 2°50.025 17.5176 4.230459 32.199936 -0.199615
2010-09-07 07:22:44 51°20.28 2°50.021 17.5172 4.235946 32.240217 -0.199615
2010-09-07 07:22:48 51°20.294 2°50.018 17.5119 4.234363 32.231963 -0.199615
2010-09-07 07:22:53 51°20.312 2°50.014 17.5088 4.234363 32.231963 -0.199615
2010-09-07 07:22:58 51°20.329 2°50.01 17.5048 4.231092 32.204162 -0.164791
2010-09-07 07:23:04 51°20.35 2°50.005 17.5025 4.231198 32.207367 -0.164791
2010-09-07 07:23:08 51°20.364 2°50.003 17.5009 4.230565 32.203141 -0.164791
2010-09-07 07:23:13 51°20.381 2°49.998 17.4998 4.230354 32.20481 -0.164791
2010-09-07 07:23:18 51°20.399 2°49.994 17.4974 4.229721 32.19712 -0.199615
2010-09-07 07:23:23 51°20.416 2°49.99 17.4969 4.229721 32.19712 -0.199615
2010-09-07 07:23:28 51°20.433 2°49.986 17.4939 4.229299 32.198149 -0.129967
2010-09-07 07:23:33 51°20.451 2°49.982 17.4915 4.224445 32.165542 -0.164791
2010-09-07 07:23:38 51°20.468 2°49.978 17.4915 4.229615 32.206035 -0.129967
2010-09-07 07:23:43 51°20.486 2°49.974 17.4926 4.224445 32.169003 -0.164791
2010-09-07 07:23:48 51°20.503 2°49.97 17.4902 4.223601 32.158943 -0.129967
2010-09-07 07:23:53 51°20.52 2°49.966 17.4875 4.223601 32.158943 -0.129967
2010-09-07 07:23:58 51°20.538 2°49.961 17.4848 4.221174 32.148688 -0.129967
2010-09-07 07:24:04 51°20.559 2°49.956 17.4841 4.224023 32.163107 -0.129967
2010-09-07 07:24:08 51°20.572 2°49.953 17.4818 4.222229 32.147282 -0.129967
2010-09-07 07:24:13 51°20.59 2°49.949 17.4854 4.220752 32.142217 -0.129967
2010-09-07 07:24:18 51°20.607 2°49.945 17.4782 4.220119 32.142599 -0.129967
2010-09-07 07:24:23 51°20.625 2°49.941 17.4777 4.220119 32.142599 -0.129967
2010-09-07 07:24:28 51°20.642 2°49.937 17.4794 4.219274 32.132539 -0.164791
2010-09-07 07:24:33 51°20.659 2°49.933 17.4794 4.216531 32.112095 -0.164791
2010-09-07 07:24:38 51°20.677 2°49.929 17.4752 4.221174 32.148112 -0.129967
2010-09-07 07:24:43 51°20.694 2°49.925 17.4713 4.214843 32.100045 -0.095143
2010-09-07 07:24:48 51°20.712 2°49.921 17.4697 4.215581 32.106325 -0.095143
2010-09-07 07:24:53 51°20.729 2°49.917 17.4686 4.215581 32.106325 -0.095143
2010-09-07 07:24:58 51°20.747 2°49.913 17.4674 4.213365 32.091515 -0.129967
2010-09-07 07:25:04 51°20.768 2°49.908 17.4649 4.218536 32.134329 -0.060319
2010-09-07 07:25:08 51°20.782 2°49.905 17.4647 4.214632 32.102858 -0.095143
2010-09-07 07:25:13 51°20.799 2°49.901 17.4637 4.21727 32.123561 -0.095143
2010-09-07 07:25:18 51°20.817 2°49.897 17.4619 4.21537 32.10741 -0.129967
2010-09-07 07:25:23 51°20.834 2°49.893 17.4573 4.21537 32.10741 -0.129967
2010-09-07 07:25:28 51°20.852 2°49.889 17.4575 4.215265 32.104209 -0.129967
2010-09-07 07:25:33 51°20.869 2°49.885 17.4566 4.212732 32.093042 -0.095143
2010-09-07 07:25:38 51°20.887 2°49.881 17.4521 4.210411 32.069848 -0.129967
2010-09-07 07:25:43 51°20.904 2°49.877 17.4493 4.2083 32.05018 -0.129967
2010-09-07 07:25:48 51°20.922 2°49.873 17.4482 4.212943 32.093685 -0.129967
2010-09-07 07:25:53 51°20.939 2°49.869 17.4489 4.212943 32.093685 -0.129967
2010-09-07 07:25:58 51°20.956 2°49.866 17.4486 4.212838 32.097396 -0.095143
2010-09-07 07:26:04 51°20.977 2°49.861 17.4474 4.210094 32.074639 -0.129967
2010-09-07 07:26:08 51°20.991 2°49.859 17.4455 4.207562 32.056555 -0.129967
2010-09-07 07:26:13 51°21.009 2°49.855 17.4464 4.210305 32.075858 -0.164791
2010-09-07 07:26:18 51°21.026 2°49.852 17.4467 4.20619 32.040288 -0.129967
2010-09-07 07:26:23 51°21.044 2°49.848 17.4444 4.20619 32.040288 -0.129967
2010-09-07 07:26:28 51°21.061 2°49.844 17.4404 4.207773 32.072744 -0.129967
2010-09-07 07:26:33 51°21.079 2°49.84 17.4427 4.204924 32.040448 -0.164791
2010-09-07 07:26:38 51°21.096 2°49.836 17.4424 4.204397 32.041139 -0.129967
2010-09-07 07:26:43 51°21.114 2°49.832 17.4427 4.201759 32.01525 -0.164791
2010-09-07 07:26:48 51°21.131 2°49.829 17.4395 4.203553 32.033383 -0.199615
2010-09-07 07:26:53 51°21.148 2°49.824 17.4435 4.203553 32.033383 -0.199615
2010-09-07 07:26:58 51°21.166 2°49.821 17.4431 4.205452 32.049539 -0.164791
2010-09-07 07:27:04 51°21.187 2°49.817 17.4463 4.202814 32.029976 -0.129967
2010-09-07 07:27:08 51°21.2 2°49.814 17.4488 4.205557 32.051012 -0.199615
2010-09-07 07:27:13 51°21.218 2°49.81 17.4501 4.203025 32.030045 -0.164791
2010-09-07 07:27:18 51°21.235 2°49.807 17.4519 4.203975 32.038124 -0.164791
2010-09-07 07:27:23 51°21.253 2°49.803 17.4524 4.203975 32.038124 -0.164791
2010-09-07 07:27:28 51°21.27 2°49.8 17.4534 4.205452 32.051266 -0.199615
2010-09-07 07:27:33 51°21.288 2°49.796 17.4508 4.202708 32.031955 -0.164791
2010-09-07 07:27:38 51°21.305 2°49.792 17.4503 4.205346 32.05152 -0.234439
2010-09-07 07:27:43 51°21.323 2°49.788 17.4501 4.205558 32.060225 -0.199615
2010-09-07 07:27:48 51°21.34 2°49.784 17.4516 4.202181 32.027466 -0.234439
2010-09-07 07:27:53 51°21.358 2°49.779 17.455 4.202181 32.027466 -0.234439
2010-09-07 07:27:58 51°21.375 2°49.775 17.4543 4.206718 32.059735 -0.199615
2010-09-07 07:28:04 51°21.396 2°49.77 17.4556 4.207035 32.064156 -0.269263
2010-09-07 07:28:08 51°21.41 2°49.767 17.4675 4.209039 32.078908 -0.234439
2010-09-07 07:28:13 51°21.427 2°49.764 17.4895 4.208934 32.076859 -0.234439
2010-09-07 07:28:18 51°21.444 2°49.76 17.5092 4.208934 32.080891 -0.199615
2010-09-07 07:28:23 51°21.462 2°49.756 17.5215 4.208934 32.080891 -0.199615
2010-09-07 07:28:28 51°21.479 2°49.751 17.5406 4.207035 32.068763 -0.234439
2010-09-07 07:28:33 51°21.496 2°49.748 17.557 4.210095 32.085581 -0.269263
2010-09-07 07:28:38 51°21.513 2°49.743 17.5648 4.211783 32.10917 -0.269263
2010-09-07 07:28:43 51°21.531 2°49.74 17.5783 4.212205 32.099501 -0.269263
2010-09-07 07:28:48 51°21.548 2°49.735 17.5842 4.21632 32.133935 -0.234439
2010-09-07 07:28:53 51°21.565 2°49.733 17.5939 4.21632 32.133935 -0.234439
2010-09-07 07:28:58 51°21.582 2°49.728 17.5999 4.225289 32.201589 -0.269263
2010-09-07 07:29:04 51°21.603 2°49.725 17.6064 4.228244 32.209387 -0.234439
2010-09-07 07:29:08 51°21.616 2°49.721 17.6119 4.240695 32.299672 -0.269263
2010-09-07 07:29:13 51°21.633 2°49.718 17.6143 4.243861 32.322542 -0.234439
2010-09-07 07:29:18 51°21.65 2°49.714 17.6169 4.255046 32.392728 -0.269263
2010-09-07 07:29:23 51°21.667 2°49.71 17.6217 4.255046 32.392728 -0.269263
2010-09-07 07:29:28 51°21.684 2°49.706 17.6245 4.255362 32.387878 -0.269263
2010-09-07 07:29:33 51°21.701 2°49.702 17.6274 4.258528 32.404926 -0.234439
2010-09-07 07:29:38 51°21.718 2°49.698 17.6285 4.263804 32.439319 -0.199615
2010-09-07 07:29:43 51°21.735 2°49.694 17.6315 4.262749 32.429772 -0.199615
2010-09-07 07:29:48 51°21.753 2°49.69 17.6324 4.272246 32.501763 -0.234439
2010-09-07 07:29:53 51°21.77 2°49.686 17.6341 4.272246 32.501763 -0.234439
2010-09-07 07:29:58 51°21.786 2°49.682 17.6357 4.275095 32.509113 -0.234439
2010-09-07 07:30:04 51°21.807 2°49.678 17.6368 4.27404 32.508286 -0.234439
2010-09-07 07:30:08 51°21.821 2°49.676 17.6377 4.275728 32.520887 -0.234439
2010-09-07 07:30:13 51°21.838 2°49.672 17.6398 4.27921 32.540584 -0.234439
2010-09-07 07:30:18 51°21.854 2°49.668 17.6396 4.280477 32.557161 -0.199615
2010-09-07 07:30:23 51°21.871 2°49.665 17.6404 4.280477 32.557161 -0.199615
2010-09-07 07:30:28 51°21.888 2°49.661 17.6411 4.282587 32.565197 -0.199615
2010-09-07 07:30:33 51°21.905 2°49.657 17.6404 4.281954 32.5604 -0.234439
2010-09-07 07:30:38 51°21.922 2°49.654 17.6404 4.279632 32.541262 -0.234439
2010-09-07 07:30:43 51°21.939 2°49.65 17.6417 4.28628 32.584345 -0.199615
2010-09-07 07:30:48 51°21.957 2°49.647 17.6424 4.280265 32.537917 -0.199615
2010-09-07 07:30:53 51°21.974 2°49.643 17.6426 4.280265 32.537917 -0.199615
2010-09-07 07:30:58 51°21.99 2°49.639 17.643 4.283537 32.565117 -0.164791
2010-09-07 07:31:04 51°22.011 2°49.635 17.6433 4.28512 32.575069 -0.199615
2010-09-07 07:31:08 51°22.025 2°49.632 17.6439 4.283326 32.566234 -0.234439
2010-09-07 07:31:13 51°22.042 2°49.628 17.6446 4.281637 32.555384 -0.234439
2010-09-07 07:31:18 51°22.06 2°49.624 17.645 4.286808 32.58708 -0.234439
2010-09-07 07:31:23 51°22.077 2°49.62 17.6443 4.286808 32.58708 -0.234439
2010-09-07 07:31:28 51°22.094 2°49.617 17.6458 4.288391 32.6046 -0.199615
2010-09-07 07:31:33 51°22.112 2°49.613 17.6442 4.287547 32.593935 -0.269263
2010-09-07 07:31:38 51°22.129 2°49.609 17.6455 4.288813 32.60469 -0.234439
2010-09-07 07:31:43 51°22.146 2°49.606 17.6449 4.287863 32.591384 -0.199615
2010-09-07 07:31:48 51°22.163 2°49.601 17.6467 4.285225 32.573056 -0.234439
2010-09-07 07:31:53 51°22.18 2°49.599 17.6465 4.285225 32.573056 -0.234439
2010-09-07 07:31:58 51°22.198 2°49.595 17.6471 4.287758 32.595728 -0.234439
2010-09-07 07:32:04 51°22.218 2°49.592 17.6479 4.290501 32.6167 -0.234439
2010-09-07 07:32:08 51°22.232 2°49.59 17.6494 4.287652 32.594831 -0.234439
2010-09-07 07:32:13 51°22.249 2°49.587 17.6527 4.289974 32.609307 -0.234439
2010-09-07 07:32:18 51°22.266 2°49.585 17.6575 4.290818 32.619389 -0.199615
2010-09-07 07:32:23 51°22.283 2°49.581 17.6605 4.290818 32.619389 -0.199615
2010-09-07 07:32:28 51°22.301 2°49.578 17.6669 4.290607 32.614684 -0.199615
2010-09-07 07:32:33 51°22.318 2°49.575 17.6716 4.288813 32.609933 -0.199615
2010-09-07 07:32:38 51°22.336 2°49.574 17.6766 4.290396 32.614639 -0.164791
2010-09-07 07:32:43 51°22.353 2°49.57 17.6806 4.294195 32.645156 -0.199615
2010-09-07 07:32:48 51°22.371 2°49.567 17.6847 4.295989 32.662144 -0.234439
2010-09-07 07:32:53 51°22.388 2°49.562 17.687 4.295989 32.662144 -0.234439
2010-09-07 07:32:58 51°22.405 2°49.558 17.6907 4.294934 32.649098 -0.234439
2010-09-07 07:33:04 51°22.425 2°49.551 17.693 4.295567 32.65156 -0.199615
2010-09-07 07:33:08 51°22.439 2°49.548 17.6954 4.300738 32.690809 -0.199615
2010-09-07 07:33:13 51°22.456 2°49.542 17.6985 4.304114 32.708395 -0.164791
2010-09-07 07:33:18 51°22.473 2°49.537 17.7013 4.308019 32.745644 -0.234439
2010-09-07 07:33:23 51°22.49 2°49.531 17.7028 4.308019 32.745644 -0.234439
2010-09-07 07:33:28 51°22.507 2°49.525 17.7043 4.310235 32.762129 -0.199615
2010-09-07 07:33:33 51°22.524 2°49.52 17.7061 4.313295 32.778178 -0.164791
2010-09-07 07:33:38 51°22.541 2°49.514 17.7066 4.31319 32.782547 -0.199615
2010-09-07 07:33:43 51°22.558 2°49.508 17.7074 4.316356 32.802998 -0.199615
2010-09-07 07:33:48 51°22.574 2°49.502 17.7088 4.317939 32.812929 -0.199615
2010-09-07 07:33:53 51°22.591 2°49.497 17.7105 4.317939 32.812929 -0.199615
2010-09-07 07:33:58 51°22.608 2°49.491 17.7115 4.323954 32.864606 -0.199615
2010-09-07 07:34:04 51°22.628 2°49.484 17.7124 4.323426 32.858365 -0.129967
2010-09-07 07:34:08 51°22.642 2°49.48 17.7138 4.319521 32.818176 -0.164791
2010-09-07 07:34:13 51°22.659 2°49.474 17.7138 4.329969 32.898101 -0.129967
2010-09-07 07:34:18 51°22.675 2°49.469 17.7151 4.325326 32.867464 -0.164791
2010-09-07 07:34:24 51°22.695 2°49.462 17.7166 4.325326 32.867464 -0.164791
2010-09-07 07:34:28 51°22.708 2°49.458 17.7159 4.325326 32.873914 -0.164791
2010-09-07 07:34:33 51°22.725 2°49.452 17.7165 4.32617 32.869358 -0.164791
2010-09-07 07:34:38 51°22.742 2°49.446 17.7186 4.327964 32.888112 -0.129967
2010-09-07 07:34:43 51°22.758 2°49.439 17.7184 4.327331 32.88332 -0.129967
2010-09-07 07:34:48 51°22.776 2°49.432 17.7187 4.325642 32.866049 -0.129967
2010-09-07 07:34:53 51°22.792 2°49.425 17.7195 4.325642 32.866049 -0.129967
2010-09-07 07:34:58 51°22.808 2°49.418 17.7206 4.330497 32.91432 -0.129967
2010-09-07 07:35:04 51°22.827 2°49.41 17.7203 4.330497 32.909037 -0.129967
2010-09-07 07:35:08 51°22.84 2°49.404 17.7208 4.331235 32.905335 -0.164791
2010-09-07 07:35:13 51°22.857 2°49.397 17.7213 4.330391 32.905206 -0.129967
2010-09-07 07:35:18 51°22.873 2°49.39 17.7224 4.32923 32.891241 -0.129967
2010-09-07 07:35:23 51°22.889 2°49.383 17.7215 4.32923 32.891241 -0.129967
2010-09-07 07:35:28 51°22.905 2°49.377 17.7222 4.330813 32.905857 -0.095143
2010-09-07 07:35:33 51°22.922 2°49.37 17.7234 4.332713 32.917881 -0.164791
2010-09-07 07:35:38 51°22.939 2°49.364 17.7244 4.335034 32.935248 -0.129967
2010-09-07 07:35:43 51°22.955 2°49.356 17.724 4.332818 32.915256 -0.129967
2010-09-07 07:35:48 51°22.971 2°49.348 17.7249 4.335351 32.939699 -0.164791
2010-09-07 07:35:53 51°22.987 2°49.34 17.7245 4.335351 32.939699 -0.164791
2010-09-07 07:35:58 51°23.003 2°49.334 17.724 4.336406 32.943963 -0.129967
2010-09-07 07:36:04 51°23.023 2°49.324 17.7243 4.335773 32.940935 -0.095143
2010-09-07 07:36:08 51°23.036 2°49.318 17.7245 4.336195 32.945107 -0.129967
2010-09-07 07:36:13 51°23.053 2°49.31 17.7245 4.332818 32.920538 -0.095143
2010-09-07 07:36:18 51°23.069 2°49.302 17.7244 4.334296 32.928388 -0.129967
2010-09-07 07:36:23 51°23.085 2°49.294 17.7231 4.334296 32.928388 -0.129967
2010-09-07 07:36:28 51°23.102 2°49.287 17.7236 4.338411 32.954528 -0.095143
2010-09-07 07:36:33 51°23.118 2°49.28 17.7226 4.335457 32.934723 -0.129967
2010-09-07 07:36:38 51°23.133 2°49.272 17.7239 4.335562 32.936794 -0.095143
2010-09-07 07:36:43 51°23.148 2°49.265 17.7222 4.333663 32.923598 -0.164791
2010-09-07 07:36:48 51°23.163 2°49.257 17.7217 4.334718 32.935496 -0.164791
2010-09-07 07:36:53 51°23.178 2°49.25 17.7232 4.334718 32.935496 -0.164791
2010-09-07 07:36:58 51°23.192 2°49.242 17.7222 4.337567 32.952058 -0.164791
2010-09-07 07:37:04 51°23.208 2°49.234 17.7212 4.335351 32.929132 -0.129967
2010-09-07 07:37:08 51°23.219 2°49.229 17.7187 4.336195 32.943345 -0.129967
2010-09-07 07:37:13 51°23.231 2°49.223 17.7194 4.340522 32.984795 -0.095143
2010-09-07 07:37:18 51°23.243 2°49.217 17.7182 4.33609 32.944798 -0.095143
2010-09-07 07:37:23 51°23.255 2°49.211 17.7158 4.33609 32.944798 -0.095143
2010-09-07 07:37:28 51°23.266 2°49.205 17.7159 4.339256 32.967572 -0.095143
2010-09-07 07:37:33 51°23.277 2°49.2 17.7142 4.336934 32.948443 -0.129967
2010-09-07 07:37:38 51°23.287 2°49.194 17.7126 4.337356 32.953203 -0.129967
2010-09-07 07:37:43 51°23.297 2°49.189 17.7117 4.335457 32.93942 -0.129967
2010-09-07 07:37:48 51°23.307 2°49.183 17.7104 4.335034 32.931726 -0.095143
2010-09-07 07:37:53 51°23.316 2°49.178 17.7087 4.335034 32.931726 -0.095143
2010-09-07 07:37:58 51°23.325 2°49.173 17.7067 4.332818 32.920538 -0.129967
2010-09-07 07:38:04 51°23.336 2°49.167 17.7073 4.334823 32.935218 -0.095143
2010-09-07 07:38:08 51°23.342 2°49.163 17.7086 4.330602 32.901718 -0.025495
2010-09-07 07:38:13 51°23.35 2°49.157 17.7056 4.333135 32.920292 -0.060319
2010-09-07 07:38:18 51°23.358 2°49.152 17.7058 4.333874 32.926565 -0.060319
2010-09-07 07:38:23 51°23.366 2°49.146 17.7052 4.333874 32.926565 -0.060319
2010-09-07 07:38:28 51°23.374 2°49.141 17.7028 4.335246 32.942914 -0.095143
2010-09-07 07:38:33 51°23.381 2°49.136 17.7029 4.331447 32.91593 -0.095143
2010-09-07 07:38:38 51°23.389 2°49.131 17.6991 4.337251 32.959358 -0.129967
2010-09-07 07:38:43 51°23.396 2°49.125 17.6985 4.334401 32.936918 -0.025495
2010-09-07 07:38:48 51°23.404 2°49.12 17.6987 4.331763 32.922142 -0.095143
2010-09-07 07:38:53 51°23.411 2°49.114 17.6971 4.331763 32.922142 -0.095143
2010-09-07 07:38:58 51°23.418 2°49.109 17.6962 4.329864 32.900138 -0.095143
2010-09-07 07:39:04 51°23.427 2°49.103 17.6954 4.331552 32.918 -0.095143
2010-09-07 07:39:08 51°23.432 2°49.099 17.6953 4.330919 32.913209 -0.129967
2010-09-07 07:39:13 51°23.439 2°49.094 17.6932 4.331341 32.920905 -0.129967
2010-09-07 07:39:18 51°23.447 2°49.09 17.6937 4.326909 32.874458 -0.095143
2010-09-07 07:39:23 51°23.454 2°49.085 17.6927 4.326909 32.874458 -0.095143
2010-09-07 07:39:28 51°23.461 2°49.08 17.692 4.333135 32.934384 -0.129967
2010-09-07 07:39:33 51°23.468 2°49.076 17.6917 4.32807 32.893114 -0.095143
2010-09-07 07:39:38 51°23.475 2°49.071 17.6918 4.326698 32.882635 -0.129967
2010-09-07 07:39:43 51°23.481 2°49.067 17.69 4.328703 32.903189 -0.129967
2010-09-07 07:39:48 51°23.488 2°49.062 17.6893 4.328492 32.8967 -0.129967
2010-09-07 07:39:53 51°23.494 2°49.057 17.6881 4.328492 32.8967 -0.129967
2010-09-07 07:39:58 51°23.499 2°49.052 17.6893 4.324587 32.873504 -0.129967
2010-09-07 07:40:04 51°23.505 2°49.046 17.6871 4.322793 32.852987 -0.164791
2010-09-07 07:40:08 51°23.509 2°49.041 17.6867 4.326065 32.881949 -0.129967
2010-09-07 07:40:13 51°23.514 2°49.036 17.6874 4.326803 32.884704 -0.164791
2010-09-07 07:40:18 51°23.518 2°49.031 17.6876 4.326065 32.882536 -0.095143
2010-09-07 07:40:23 51°23.522 2°49.026 17.6869 4.326065 32.882536 -0.095143
2010-09-07 07:40:28 51°23.525 2°49.021 17.6871 4.331025 32.921152 -0.129967
2010-09-07 07:40:33 51°23.528 2°49.017 17.685 4.329125 32.90384 -0.095143
2010-09-07 07:40:38 51°23.53 2°49.011 17.6853 4.320366 32.83823 -0.129967
2010-09-07 07:40:43 51°23.532 2°49.007 17.6859 4.321316 32.848057 -0.129967
2010-09-07 07:40:48 51°23.533 2°49.002 17.6851 4.322582 32.852953 -0.129967
2010-09-07 07:40:53 51°23.534 2°48.998 17.6846 4.322582 32.852953 -0.129967
2010-09-07 07:40:58 51°23.535 2°48.993 17.6869 4.323215 32.859504 -0.095143
2010-09-07 07:41:03 51°23.535 2°48.99 17.688 4.323954 32.865779 -0.129967
2010-09-07 07:41:08 51°23.535 2°48.986 17.6894 4.324482 32.873194 -0.129967
2010-09-07 07:41:13 51°23.535 2°48.983 17.6918 4.324693 32.87616 -0.164791
2010-09-07 07:41:18 51°23.534 2°48.981 17.6937 4.32617 32.8893 -0.164791
2010-09-07 07:41:24 51°23.533 2°48.979 17.6974 4.32617 32.8893 -0.164791
2010-09-07 07:41:28 51°23.532 2°48.978 17.7013 4.321843 32.854298 -0.164791
2010-09-07 07:41:33 51°23.531 2°48.976 17.7042 4.321843 32.854298 -0.164791
2010-09-07 07:41:38 51°23.53 2°48.975 17.7078 4.324587 32.864708 -0.199615
2010-09-07 07:41:43 51°23.529 2°48.973 17.7091 4.324165 32.866399 -0.129967
2010-09-07 07:41:48 51°23.528 2°48.972 17.7091 4.326909 32.888534 -0.129967
2010-09-07 07:41:53 51°23.527 2°48.971 17.7125 4.326909 32.888534 -0.129967
2010-09-07 07:41:58 51°23.526 2°48.969 17.7142 4.325537 32.87512 -0.129967
2010-09-07 07:42:03 51°23.525 2°48.968 17.7146 4.330391 32.916947 -0.095143
2010-09-07 07:42:08 51°23.524 2°48.967 17.7173 4.329547 32.902143 -0.060319
2010-09-07 07:42:13 51°23.523 2°48.965 17.7184 4.327225 32.88653 -0.025495
2010-09-07 07:42:18 51°23.522 2°48.964 17.722 4.330286 32.907831 -0.060319
2010-09-07 07:42:24 51°23.52 2°48.962 17.7222 4.330286 32.907831 -0.060319
2010-09-07 07:42:28 51°23.52 2°48.961 17.7243 4.332396 32.924585 -0.060319
2010-09-07 07:42:33 51°23.519 2°48.96 17.726 4.336829 32.95636 -0.060319
2010-09-07 07:42:38 51°23.517 2°48.958 17.7278 4.33514 32.940843 -0.060319
2010-09-07 07:42:43 51°23.516 2°48.957 17.7294 4.333241 32.931756 -0.060319
2010-09-07 07:42:48 51°23.515 2°48.956 17.7305 4.333557 32.926224 -0.025495
2010-09-07 07:42:53 51°23.514 2°48.955 17.7313 4.333557 32.926224 -0.025495
2010-09-07 07:42:58 51°23.513 2°48.953 17.7314 4.337673 32.962355 -0.060319
2010-09-07 07:43:03 51°23.512 2°48.952 17.7342 4.336195 32.944519 -0.025495
2010-09-07 07:43:08 51°23.511 2°48.951 17.7341 4.335457 32.944707 0.009329
2010-09-07 07:43:13 51°23.51 2°48.949 17.7336 4.338728 32.964266 0.009329
2010-09-07 07:43:18 51°23.509 2°48.948 17.7348 4.339572 32.964385 0.044153
2010-09-07 07:43:24 51°23.508 2°48.947 17.7354 4.339572 32.964385 0.044153
2010-09-07 07:43:28 51°23.507 2°48.946 17.7375 4.338834 32.964575 0.009329
2010-09-07 07:43:33 51°23.506 2°48.944 17.7361 4.343583 33.003733 0.078977
2010-09-07 07:43:38 51°23.505 2°48.943 17.7357 4.34105 32.976931 0.044153
2010-09-07 07:43:43 51°23.504 2°48.942 17.7369 4.341683 32.982895 0.078977
2010-09-07 07:43:48 51°23.502 2°48.94 17.7371 4.342633 32.992137 0.044153
2010-09-07 07:43:53 51°23.502 2°48.939 17.7356 4.342633 32.992137 0.044153
2010-09-07 07:43:58 51°23.501 2°48.938 17.7384 4.342844 32.99393 0.044153
2010-09-07 07:44:03 51°23.499 2°48.936 17.7368 4.346432 33.019108 0.078977